<?xml version='1.0' encoding='UTF-8'?>
<gpx version="1.1" creator="https://www.komoot.de" xmlns="http://www.topografix.com/GPX/1/1" xmlns:xsi="http://www.w3.org/2001/XMLSchema-instance" xsi:schemaLocation="http://www.topografix.com/GPX/1/1 http://www.topografix.com/GPX/1/1/gpx.xsd">
  <metadata>
    <name>Sieben Waldwunder: Historischer Rundwanderweg Leistadt am 09.02.22 erwandert.</name>
    <author>
      <link href="https://www.komoot.de">
        <text>komoot</text>
        <type>text/html</type>
      </link>
    </author>
  </metadata>
  <trk>
    <name>Sieben Waldwunder: Historischer Rundwanderweg Leistadt am 09.02.22 erwandert.</name>
    <trkseg>
      <trkpt lat="49.496337" lon="8.157132">
        <ele>262.574578</ele>
        <time>2022-02-09T07:56:25.475Z</time>
      </trkpt>
      <trkpt lat="49.496280" lon="8.156990">
        <ele>262.574578</ele>
        <time>2022-02-09T07:56:27.487Z</time>
      </trkpt>
      <trkpt lat="49.496310" lon="8.156855">
        <ele>262.574578</ele>
        <time>2022-02-09T07:56:34.899Z</time>
      </trkpt>
      <trkpt lat="49.496287" lon="8.156717">
        <ele>262.574578</ele>
        <time>2022-02-09T07:56:42.886Z</time>
      </trkpt>
      <trkpt lat="49.496213" lon="8.156540">
        <ele>262.574578</ele>
        <time>2022-02-09T07:57:08.907Z</time>
      </trkpt>
      <trkpt lat="49.496190" lon="8.156392">
        <ele>262.574578</ele>
        <time>2022-02-09T07:57:15.895Z</time>
      </trkpt>
      <trkpt lat="49.496197" lon="8.156248">
        <ele>262.574578</ele>
        <time>2022-02-09T07:57:22.900Z</time>
      </trkpt>
      <trkpt lat="49.496203" lon="8.156097">
        <ele>262.574578</ele>
        <time>2022-02-09T07:57:31.906Z</time>
      </trkpt>
      <trkpt lat="49.496198" lon="8.155957">
        <ele>262.574578</ele>
        <time>2022-02-09T07:57:38.902Z</time>
      </trkpt>
      <trkpt lat="49.496193" lon="8.155812">
        <ele>262.616253</ele>
        <time>2022-02-09T07:57:46.893Z</time>
      </trkpt>
      <trkpt lat="49.496202" lon="8.155660">
        <ele>263.183095</ele>
        <time>2022-02-09T07:57:55.899Z</time>
      </trkpt>
      <trkpt lat="49.496228" lon="8.155517">
        <ele>263.734587</ele>
        <time>2022-02-09T07:58:03.883Z</time>
      </trkpt>
      <trkpt lat="49.496295" lon="8.155412">
        <ele>264.281242</ele>
        <time>2022-02-09T07:58:10.897Z</time>
      </trkpt>
      <trkpt lat="49.496363" lon="8.155308">
        <ele>264.829295</ele>
        <time>2022-02-09T07:58:17.902Z</time>
      </trkpt>
      <trkpt lat="49.496425" lon="8.155207">
        <ele>265.345412</ele>
        <time>2022-02-09T07:58:24.894Z</time>
      </trkpt>
      <trkpt lat="49.496483" lon="8.155078">
        <ele>265.928082</ele>
        <time>2022-02-09T07:58:32.896Z</time>
      </trkpt>
      <trkpt lat="49.496547" lon="8.154952">
        <ele>266.522125</ele>
        <time>2022-02-09T07:58:39.895Z</time>
      </trkpt>
      <trkpt lat="49.496620" lon="8.154857">
        <ele>267.068668</ele>
        <time>2022-02-09T07:58:46.900Z</time>
      </trkpt>
      <trkpt lat="49.496693" lon="8.154775">
        <ele>267.585361</ele>
        <time>2022-02-09T07:58:53.892Z</time>
      </trkpt>
      <trkpt lat="49.496772" lon="8.154702">
        <ele>268.112191</ele>
        <time>2022-02-09T07:59:00.886Z</time>
      </trkpt>
      <trkpt lat="49.496863" lon="8.154632">
        <ele>268.693854</ele>
        <time>2022-02-09T07:59:08.891Z</time>
      </trkpt>
      <trkpt lat="49.496947" lon="8.154540">
        <ele>269.283290</ele>
        <time>2022-02-09T07:59:15.899Z</time>
      </trkpt>
      <trkpt lat="49.497025" lon="8.154463">
        <ele>269.813093</ele>
        <time>2022-02-09T07:59:22.887Z</time>
      </trkpt>
      <trkpt lat="49.497113" lon="8.154395">
        <ele>270.376091</ele>
        <time>2022-02-09T07:59:30.890Z</time>
      </trkpt>
      <trkpt lat="49.497195" lon="8.154317">
        <ele>270.927230</ele>
        <time>2022-02-09T07:59:37.901Z</time>
      </trkpt>
      <trkpt lat="49.497275" lon="8.154247">
        <ele>271.453377</ele>
        <time>2022-02-09T07:59:44.892Z</time>
      </trkpt>
      <trkpt lat="49.497350" lon="8.154167">
        <ele>271.975084</ele>
        <time>2022-02-09T07:59:51.904Z</time>
      </trkpt>
      <trkpt lat="49.497437" lon="8.154105">
        <ele>272.523251</ele>
        <time>2022-02-09T07:59:58.898Z</time>
      </trkpt>
      <trkpt lat="49.497517" lon="8.154035">
        <ele>273.043043</ele>
        <time>2022-02-09T08:00:06.897Z</time>
      </trkpt>
      <trkpt lat="49.497607" lon="8.153967">
        <ele>273.597134</ele>
        <time>2022-02-09T08:00:12.884Z</time>
      </trkpt>
      <trkpt lat="49.497687" lon="8.153885">
        <ele>274.128307</ele>
        <time>2022-02-09T08:00:19.890Z</time>
      </trkpt>
      <trkpt lat="49.497750" lon="8.153773">
        <ele>274.660170</ele>
        <time>2022-02-09T08:00:27.888Z</time>
      </trkpt>
      <trkpt lat="49.497805" lon="8.153658">
        <ele>275.172826</ele>
        <time>2022-02-09T08:00:34.886Z</time>
      </trkpt>
      <trkpt lat="49.497843" lon="8.153532">
        <ele>275.671505</ele>
        <time>2022-02-09T08:00:41.891Z</time>
      </trkpt>
      <trkpt lat="49.497868" lon="8.153395">
        <ele>276.182327</ele>
        <time>2022-02-09T08:00:48.897Z</time>
      </trkpt>
      <trkpt lat="49.497885" lon="8.153257">
        <ele>276.686528</ele>
        <time>2022-02-09T08:00:55.897Z</time>
      </trkpt>
      <trkpt lat="49.497918" lon="8.153113">
        <ele>277.234668</ele>
        <time>2022-02-09T08:01:03.893Z</time>
      </trkpt>
      <trkpt lat="49.497948" lon="8.152977">
        <ele>277.750247</ele>
        <time>2022-02-09T08:01:10.893Z</time>
      </trkpt>
      <trkpt lat="49.497983" lon="8.152847">
        <ele>278.255404</ele>
        <time>2022-02-09T08:01:17.895Z</time>
      </trkpt>
      <trkpt lat="49.498038" lon="8.152723">
        <ele>278.794413</ele>
        <time>2022-02-09T08:01:24.896Z</time>
      </trkpt>
      <trkpt lat="49.498080" lon="8.152582">
        <ele>279.351243</ele>
        <time>2022-02-09T08:01:31.905Z</time>
      </trkpt>
      <trkpt lat="49.498125" lon="8.152453">
        <ele>279.876869</ele>
        <time>2022-02-09T08:01:38.893Z</time>
      </trkpt>
      <trkpt lat="49.498170" lon="8.152333">
        <ele>280.374269</ele>
        <time>2022-02-09T08:01:45.893Z</time>
      </trkpt>
      <trkpt lat="49.498227" lon="8.152207">
        <ele>280.925463</ele>
        <time>2022-02-09T08:01:53.885Z</time>
      </trkpt>
      <trkpt lat="49.498273" lon="8.152068">
        <ele>281.485458</ele>
        <time>2022-02-09T08:02:00.904Z</time>
      </trkpt>
      <trkpt lat="49.498312" lon="8.151943">
        <ele>281.983247</ele>
        <time>2022-02-09T08:02:07.899Z</time>
      </trkpt>
      <trkpt lat="49.498373" lon="8.151840">
        <ele>282.483613</ele>
        <time>2022-02-09T08:02:13.878Z</time>
      </trkpt>
      <trkpt lat="49.498457" lon="8.151752">
        <ele>283.174055</ele>
        <time>2022-02-09T08:02:20.888Z</time>
      </trkpt>
      <trkpt lat="49.498527" lon="8.151645">
        <ele>284.006139</ele>
        <time>2022-02-09T08:02:27.902Z</time>
      </trkpt>
      <trkpt lat="49.498605" lon="8.151542">
        <ele>284.872976</ele>
        <time>2022-02-09T08:02:35.911Z</time>
      </trkpt>
      <trkpt lat="49.498682" lon="8.151450">
        <ele>285.695161</ele>
        <time>2022-02-09T08:02:42.895Z</time>
      </trkpt>
      <trkpt lat="49.498757" lon="8.151347">
        <ele>286.542946</ele>
        <time>2022-02-09T08:02:49.892Z</time>
      </trkpt>
      <trkpt lat="49.498830" lon="8.151247">
        <ele>287.367200</ele>
        <time>2022-02-09T08:02:57.891Z</time>
      </trkpt>
      <trkpt lat="49.498907" lon="8.151143">
        <ele>288.231252</ele>
        <time>2022-02-09T08:03:04.898Z</time>
      </trkpt>
      <trkpt lat="49.498980" lon="8.151055">
        <ele>289.013349</ele>
        <time>2022-02-09T08:03:11.900Z</time>
      </trkpt>
      <trkpt lat="49.499048" lon="8.150957">
        <ele>289.799056</ele>
        <time>2022-02-09T08:03:19.892Z</time>
      </trkpt>
      <trkpt lat="49.499128" lon="8.150862">
        <ele>290.651312</ele>
        <time>2022-02-09T08:03:27.902Z</time>
      </trkpt>
      <trkpt lat="49.499195" lon="8.150768">
        <ele>291.415952</ele>
        <time>2022-02-09T08:03:34.898Z</time>
      </trkpt>
      <trkpt lat="49.499282" lon="8.150697">
        <ele>292.246580</ele>
        <time>2022-02-09T08:03:41.882Z</time>
      </trkpt>
      <trkpt lat="49.499353" lon="8.150610">
        <ele>293.012037</ele>
        <time>2022-02-09T08:03:48.893Z</time>
      </trkpt>
      <trkpt lat="49.499432" lon="8.150513">
        <ele>293.864415</ele>
        <time>2022-02-09T08:03:55.898Z</time>
      </trkpt>
      <trkpt lat="49.499515" lon="8.150443">
        <ele>294.662738</ele>
        <time>2022-02-09T08:04:03.898Z</time>
      </trkpt>
      <trkpt lat="49.499597" lon="8.150363">
        <ele>295.481640</ele>
        <time>2022-02-09T08:04:11.888Z</time>
      </trkpt>
      <trkpt lat="49.499685" lon="8.150300">
        <ele>296.300308</ele>
        <time>2022-02-09T08:04:19.904Z</time>
      </trkpt>
      <trkpt lat="49.499768" lon="8.150212">
        <ele>297.150415</ele>
        <time>2022-02-09T08:04:27.897Z</time>
      </trkpt>
      <trkpt lat="49.499857" lon="8.150142">
        <ele>298.014003</ele>
        <time>2022-02-09T08:04:35.902Z</time>
      </trkpt>
      <trkpt lat="49.499943" lon="8.150062">
        <ele>299.720942</ele>
        <time>2022-02-09T08:04:43.891Z</time>
      </trkpt>
      <trkpt lat="49.500013" lon="8.149973">
        <ele>301.263155</ele>
        <time>2022-02-09T08:04:53.895Z</time>
      </trkpt>
      <trkpt lat="49.500082" lon="8.149882">
        <ele>302.806569</ele>
        <time>2022-02-09T08:04:59.892Z</time>
      </trkpt>
      <trkpt lat="49.500162" lon="8.149797">
        <ele>304.457812</ele>
        <time>2022-02-09T08:05:08.903Z</time>
      </trkpt>
      <trkpt lat="49.500242" lon="8.149720">
        <ele>306.060573</ele>
        <time>2022-02-09T08:05:16.889Z</time>
      </trkpt>
      <trkpt lat="49.500332" lon="8.149652">
        <ele>307.763693</ele>
        <time>2022-02-09T08:05:25.904Z</time>
      </trkpt>
      <trkpt lat="49.500403" lon="8.149567">
        <ele>309.291560</ele>
        <time>2022-02-09T08:05:31.898Z</time>
      </trkpt>
      <trkpt lat="49.500485" lon="8.149500">
        <ele>310.868600</ele>
        <time>2022-02-09T08:05:38.891Z</time>
      </trkpt>
      <trkpt lat="49.500563" lon="8.149430">
        <ele>312.402345</ele>
        <time>2022-02-09T08:05:46.888Z</time>
      </trkpt>
      <trkpt lat="49.500643" lon="8.149342">
        <ele>314.072604</ele>
        <time>2022-02-09T08:05:54.893Z</time>
      </trkpt>
      <trkpt lat="49.500727" lon="8.149253">
        <ele>315.804838</ele>
        <time>2022-02-09T08:06:02.898Z</time>
      </trkpt>
      <trkpt lat="49.500813" lon="8.149202">
        <ele>317.370460</ele>
        <time>2022-02-09T08:06:31.901Z</time>
      </trkpt>
      <trkpt lat="49.500885" lon="8.149100">
        <ele>319.032567</ele>
        <time>2022-02-09T08:06:43.888Z</time>
      </trkpt>
      <trkpt lat="49.500955" lon="8.148992">
        <ele>320.716018</ele>
        <time>2022-02-09T08:06:50.888Z</time>
      </trkpt>
      <trkpt lat="49.501007" lon="8.148875">
        <ele>322.280213</ele>
        <time>2022-02-09T08:07:00.897Z</time>
      </trkpt>
      <trkpt lat="49.501077" lon="8.148758">
        <ele>324.035346</ele>
        <time>2022-02-09T08:07:09.900Z</time>
      </trkpt>
      <trkpt lat="49.501143" lon="8.148648">
        <ele>325.687636</ele>
        <time>2022-02-09T08:07:21.906Z</time>
      </trkpt>
      <trkpt lat="49.501212" lon="8.148547">
        <ele>327.304977</ele>
        <time>2022-02-09T08:07:31.895Z</time>
      </trkpt>
      <trkpt lat="49.501292" lon="8.148467">
        <ele>328.747104</ele>
        <time>2022-02-09T08:07:41.904Z</time>
      </trkpt>
      <trkpt lat="49.501380" lon="8.148403">
        <ele>329.655514</ele>
        <time>2022-02-09T08:07:50.899Z</time>
      </trkpt>
      <trkpt lat="49.501468" lon="8.148342">
        <ele>330.556308</ele>
        <time>2022-02-09T08:08:02.906Z</time>
      </trkpt>
      <trkpt lat="49.501558" lon="8.148278">
        <ele>331.481633</ele>
        <time>2022-02-09T08:08:12.901Z</time>
      </trkpt>
      <trkpt lat="49.501647" lon="8.148235">
        <ele>332.352300</ele>
        <time>2022-02-09T08:08:23.891Z</time>
      </trkpt>
      <trkpt lat="49.501735" lon="8.148185">
        <ele>333.227836</ele>
        <time>2022-02-09T08:08:32.891Z</time>
      </trkpt>
      <trkpt lat="49.501823" lon="8.148157">
        <ele>334.066589</ele>
        <time>2022-02-09T08:08:44.896Z</time>
      </trkpt>
      <trkpt lat="49.501903" lon="8.148092">
        <ele>334.910893</ele>
        <time>2022-02-09T08:08:54.892Z</time>
      </trkpt>
      <trkpt lat="49.501995" lon="8.148053">
        <ele>335.801577</ele>
        <time>2022-02-09T08:09:03.903Z</time>
      </trkpt>
      <trkpt lat="49.502093" lon="8.148033">
        <ele>336.724318</ele>
        <time>2022-02-09T08:09:15.896Z</time>
      </trkpt>
      <trkpt lat="49.502067" lon="8.147897">
        <ele>337.583695</ele>
        <time>2022-02-09T08:09:43.904Z</time>
      </trkpt>
      <trkpt lat="49.502037" lon="8.147765">
        <ele>338.431430</ele>
        <time>2022-02-09T08:09:50.894Z</time>
      </trkpt>
      <trkpt lat="49.501998" lon="8.147628">
        <ele>339.338173</ele>
        <time>2022-02-09T08:09:58.891Z</time>
      </trkpt>
      <trkpt lat="49.501933" lon="8.147523">
        <ele>340.217502</ele>
        <time>2022-02-09T08:10:07.895Z</time>
      </trkpt>
      <trkpt lat="49.501847" lon="8.147457">
        <ele>341.114408</ele>
        <time>2022-02-09T08:10:13.897Z</time>
      </trkpt>
      <trkpt lat="49.501772" lon="8.147360">
        <ele>342.028637</ele>
        <time>2022-02-09T08:10:21.887Z</time>
      </trkpt>
      <trkpt lat="49.501688" lon="8.147293">
        <ele>342.911647</ele>
        <time>2022-02-09T08:10:29.913Z</time>
      </trkpt>
      <trkpt lat="49.501595" lon="8.147235">
        <ele>343.848214</ele>
        <time>2022-02-09T08:10:37.892Z</time>
      </trkpt>
      <trkpt lat="49.501500" lon="8.147207">
        <ele>344.751051</ele>
        <time>2022-02-09T08:10:44.896Z</time>
      </trkpt>
      <trkpt lat="49.501415" lon="8.147147">
        <ele>345.471557</ele>
        <time>2022-02-09T08:10:51.894Z</time>
      </trkpt>
      <trkpt lat="49.501312" lon="8.147138">
        <ele>345.954646</ele>
        <time>2022-02-09T08:10:58.889Z</time>
      </trkpt>
      <trkpt lat="49.501218" lon="8.147077">
        <ele>346.432308</ele>
        <time>2022-02-09T08:11:05.896Z</time>
      </trkpt>
      <trkpt lat="49.501128" lon="8.147028">
        <ele>346.879316</ele>
        <time>2022-02-09T08:11:13.897Z</time>
      </trkpt>
      <trkpt lat="49.501043" lon="8.146953">
        <ele>347.338058</ele>
        <time>2022-02-09T08:11:21.888Z</time>
      </trkpt>
      <trkpt lat="49.500958" lon="8.146902">
        <ele>347.765234</ele>
        <time>2022-02-09T08:11:29.897Z</time>
      </trkpt>
      <trkpt lat="49.500863" lon="8.146930">
        <ele>348.218162</ele>
        <time>2022-02-09T08:11:36.900Z</time>
      </trkpt>
      <trkpt lat="49.500777" lon="8.146972">
        <ele>348.640640</ele>
        <time>2022-02-09T08:11:43.896Z</time>
      </trkpt>
      <trkpt lat="49.500692" lon="8.147023">
        <ele>349.067816</ele>
        <time>2022-02-09T08:11:51.896Z</time>
      </trkpt>
      <trkpt lat="49.500590" lon="8.147037">
        <ele>349.547341</ele>
        <time>2022-02-09T08:12:00.897Z</time>
      </trkpt>
      <trkpt lat="49.500492" lon="8.147055">
        <ele>350.009494</ele>
        <time>2022-02-09T08:12:07.899Z</time>
      </trkpt>
      <trkpt lat="49.500397" lon="8.147053">
        <ele>350.454388</ele>
        <time>2022-02-09T08:12:15.900Z</time>
      </trkpt>
      <trkpt lat="49.500298" lon="8.147047">
        <ele>350.918329</ele>
        <time>2022-02-09T08:12:24.905Z</time>
      </trkpt>
      <trkpt lat="49.500197" lon="8.147077">
        <ele>351.399997</ele>
        <time>2022-02-09T08:12:31.901Z</time>
      </trkpt>
      <trkpt lat="49.500095" lon="8.147117">
        <ele>351.892875</ele>
        <time>2022-02-09T08:12:38.902Z</time>
      </trkpt>
      <trkpt lat="49.500007" lon="8.147145">
        <ele>352.313654</ele>
        <time>2022-02-09T08:12:44.899Z</time>
      </trkpt>
      <trkpt lat="49.499907" lon="8.147120">
        <ele>352.788052</ele>
        <time>2022-02-09T08:12:53.899Z</time>
      </trkpt>
      <trkpt lat="49.499805" lon="8.147107">
        <ele>353.267316</ele>
        <time>2022-02-09T08:13:01.898Z</time>
      </trkpt>
      <trkpt lat="49.499713" lon="8.147068">
        <ele>353.714148</ele>
        <time>2022-02-09T08:13:08.897Z</time>
      </trkpt>
      <trkpt lat="49.499620" lon="8.147043">
        <ele>353.690305</ele>
        <time>2022-02-09T08:13:14.897Z</time>
      </trkpt>
      <trkpt lat="49.499527" lon="8.147002">
        <ele>353.635399</ele>
        <time>2022-02-09T08:13:21.900Z</time>
      </trkpt>
      <trkpt lat="49.499447" lon="8.146935">
        <ele>353.583710</ele>
        <time>2022-02-09T08:13:28.903Z</time>
      </trkpt>
      <trkpt lat="49.499358" lon="8.146853">
        <ele>353.524843</ele>
        <time>2022-02-09T08:13:36.890Z</time>
      </trkpt>
      <trkpt lat="49.499262" lon="8.146815">
        <ele>353.468583</ele>
        <time>2022-02-09T08:13:44.910Z</time>
      </trkpt>
      <trkpt lat="49.499167" lon="8.146808">
        <ele>353.414602</ele>
        <time>2022-02-09T08:13:51.894Z</time>
      </trkpt>
      <trkpt lat="49.499067" lon="8.146817">
        <ele>353.357747</ele>
        <time>2022-02-09T08:13:58.894Z</time>
      </trkpt>
      <trkpt lat="49.498977" lon="8.146842">
        <ele>353.305840</ele>
        <time>2022-02-09T08:14:05.904Z</time>
      </trkpt>
      <trkpt lat="49.498873" lon="8.146835">
        <ele>353.246756</ele>
        <time>2022-02-09T08:14:12.900Z</time>
      </trkpt>
      <trkpt lat="49.498780" lon="8.146825">
        <ele>353.193842</ele>
        <time>2022-02-09T08:14:19.896Z</time>
      </trkpt>
      <trkpt lat="49.498703" lon="8.146727">
        <ele>353.137141</ele>
        <time>2022-02-09T08:14:27.891Z</time>
      </trkpt>
      <trkpt lat="49.498628" lon="8.146640">
        <ele>353.083844</ele>
        <time>2022-02-09T08:14:34.904Z</time>
      </trkpt>
      <trkpt lat="49.498555" lon="8.146557">
        <ele>353.032338</ele>
        <time>2022-02-09T08:14:40.897Z</time>
      </trkpt>
      <trkpt lat="49.498487" lon="8.146460">
        <ele>352.979725</ele>
        <time>2022-02-09T08:14:47.910Z</time>
      </trkpt>
      <trkpt lat="49.498412" lon="8.146358">
        <ele>352.922929</ele>
        <time>2022-02-09T08:14:54.896Z</time>
      </trkpt>
      <trkpt lat="49.498352" lon="8.146237">
        <ele>352.866811</ele>
        <time>2022-02-09T08:15:01.899Z</time>
      </trkpt>
      <trkpt lat="49.498283" lon="8.146145">
        <ele>352.815005</ele>
        <time>2022-02-09T08:15:07.888Z</time>
      </trkpt>
      <trkpt lat="49.498213" lon="8.146030">
        <ele>352.756905</ele>
        <time>2022-02-09T08:15:14.896Z</time>
      </trkpt>
      <trkpt lat="49.498150" lon="8.145903">
        <ele>352.779818</ele>
        <time>2022-02-09T08:15:21.898Z</time>
      </trkpt>
      <trkpt lat="49.498102" lon="8.145777">
        <ele>352.928039</ele>
        <time>2022-02-09T08:15:28.900Z</time>
      </trkpt>
      <trkpt lat="49.498057" lon="8.145638">
        <ele>353.085631</ele>
        <time>2022-02-09T08:15:35.885Z</time>
      </trkpt>
      <trkpt lat="49.498017" lon="8.145508">
        <ele>353.231595</ele>
        <time>2022-02-09T08:15:42.906Z</time>
      </trkpt>
      <trkpt lat="49.497977" lon="8.145378">
        <ele>353.377558</ele>
        <time>2022-02-09T08:15:49.887Z</time>
      </trkpt>
      <trkpt lat="49.497922" lon="8.145237">
        <ele>353.544450</ele>
        <time>2022-02-09T08:15:56.899Z</time>
      </trkpt>
      <trkpt lat="49.497888" lon="8.145098">
        <ele>353.695163</ele>
        <time>2022-02-09T08:16:02.904Z</time>
      </trkpt>
      <trkpt lat="49.497838" lon="8.144962">
        <ele>353.853736</ele>
        <time>2022-02-09T08:16:09.903Z</time>
      </trkpt>
      <trkpt lat="49.497780" lon="8.144837">
        <ele>354.009616</ele>
        <time>2022-02-09T08:16:16.892Z</time>
      </trkpt>
      <trkpt lat="49.497727" lon="8.144722">
        <ele>354.152699</ele>
        <time>2022-02-09T08:16:23.894Z</time>
      </trkpt>
      <trkpt lat="49.497695" lon="8.144577">
        <ele>354.308091</ele>
        <time>2022-02-09T08:16:31.889Z</time>
      </trkpt>
      <trkpt lat="49.497652" lon="8.144437">
        <ele>354.465232</ele>
        <time>2022-02-09T08:16:37.905Z</time>
      </trkpt>
      <trkpt lat="49.497628" lon="8.144282">
        <ele>354.626917</ele>
        <time>2022-02-09T08:16:44.898Z</time>
      </trkpt>
      <trkpt lat="49.497598" lon="8.144145">
        <ele>354.773619</ele>
        <time>2022-02-09T08:16:51.901Z</time>
      </trkpt>
      <trkpt lat="49.497570" lon="8.144000">
        <ele>354.927115</ele>
        <time>2022-02-09T08:16:59.890Z</time>
      </trkpt>
      <trkpt lat="49.497538" lon="8.143857">
        <ele>355.080588</ele>
        <time>2022-02-09T08:17:06.918Z</time>
      </trkpt>
      <trkpt lat="49.497513" lon="8.143700">
        <ele>355.244613</ele>
        <time>2022-02-09T08:17:12.897Z</time>
      </trkpt>
      <trkpt lat="49.497478" lon="8.143558">
        <ele>355.398727</ele>
        <time>2022-02-09T08:17:19.893Z</time>
      </trkpt>
      <trkpt lat="49.497450" lon="8.143427">
        <ele>355.548402</ele>
        <time>2022-02-09T08:17:26.904Z</time>
      </trkpt>
      <trkpt lat="49.497435" lon="8.143278">
        <ele>355.870452</ele>
        <time>2022-02-09T08:17:33.894Z</time>
      </trkpt>
      <trkpt lat="49.497417" lon="8.143133">
        <ele>356.185764</ele>
        <time>2022-02-09T08:17:39.901Z</time>
      </trkpt>
      <trkpt lat="49.497392" lon="8.142993">
        <ele>356.495887</ele>
        <time>2022-02-09T08:17:47.897Z</time>
      </trkpt>
      <trkpt lat="49.497388" lon="8.142848">
        <ele>356.805873</ele>
        <time>2022-02-09T08:17:54.900Z</time>
      </trkpt>
      <trkpt lat="49.497403" lon="8.142707">
        <ele>357.111048</ele>
        <time>2022-02-09T08:18:01.897Z</time>
      </trkpt>
      <trkpt lat="49.497422" lon="8.142567">
        <ele>357.416533</ele>
        <time>2022-02-09T08:18:08.904Z</time>
      </trkpt>
      <trkpt lat="49.497447" lon="8.142418">
        <ele>357.745231</ele>
        <time>2022-02-09T08:18:16.897Z</time>
      </trkpt>
      <trkpt lat="49.497475" lon="8.142278">
        <ele>358.058114</ele>
        <time>2022-02-09T08:18:22.900Z</time>
      </trkpt>
      <trkpt lat="49.497498" lon="8.142137">
        <ele>358.368629</ele>
        <time>2022-02-09T08:18:29.893Z</time>
      </trkpt>
      <trkpt lat="49.497528" lon="8.141997">
        <ele>358.683510</ele>
        <time>2022-02-09T08:18:36.907Z</time>
      </trkpt>
      <trkpt lat="49.497580" lon="8.141870">
        <ele>359.004174</ele>
        <time>2022-02-09T08:18:43.910Z</time>
      </trkpt>
      <trkpt lat="49.497602" lon="8.141723">
        <ele>359.326378</ele>
        <time>2022-02-09T08:18:49.889Z</time>
      </trkpt>
      <trkpt lat="49.497657" lon="8.141613">
        <ele>359.622885</ele>
        <time>2022-02-09T08:18:55.888Z</time>
      </trkpt>
      <trkpt lat="49.497700" lon="8.141483">
        <ele>359.934486</ele>
        <time>2022-02-09T08:19:03.897Z</time>
      </trkpt>
      <trkpt lat="49.497778" lon="8.141383">
        <ele>360.268281</ele>
        <time>2022-02-09T08:19:10.900Z</time>
      </trkpt>
      <trkpt lat="49.497818" lon="8.141243">
        <ele>360.594961</ele>
        <time>2022-02-09T08:19:18.893Z</time>
      </trkpt>
      <trkpt lat="49.497873" lon="8.141127">
        <ele>360.901721</ele>
        <time>2022-02-09T08:19:24.903Z</time>
      </trkpt>
      <trkpt lat="49.497935" lon="8.141018">
        <ele>361.211195</ele>
        <time>2022-02-09T08:19:32.894Z</time>
      </trkpt>
      <trkpt lat="49.498020" lon="8.140967">
        <ele>361.404445</ele>
        <time>2022-02-09T08:19:39.900Z</time>
      </trkpt>
      <trkpt lat="49.498110" lon="8.140930">
        <ele>361.217414</ele>
        <time>2022-02-09T08:19:45.893Z</time>
      </trkpt>
      <trkpt lat="49.498202" lon="8.140908">
        <ele>361.030482</ele>
        <time>2022-02-09T08:19:50.901Z</time>
      </trkpt>
      <trkpt lat="49.498297" lon="8.140872">
        <ele>360.834050</ele>
        <time>2022-02-09T08:19:57.904Z</time>
      </trkpt>
      <trkpt lat="49.498387" lon="8.140853">
        <ele>360.651658</ele>
        <time>2022-02-09T08:20:04.883Z</time>
      </trkpt>
      <trkpt lat="49.498483" lon="8.140815">
        <ele>360.452642</ele>
        <time>2022-02-09T08:20:12.893Z</time>
      </trkpt>
      <trkpt lat="49.498572" lon="8.140747">
        <ele>360.253158</ele>
        <time>2022-02-09T08:20:19.889Z</time>
      </trkpt>
      <trkpt lat="49.498648" lon="8.140670">
        <ele>360.070494</ele>
        <time>2022-02-09T08:20:25.897Z</time>
      </trkpt>
      <trkpt lat="49.498727" lon="8.140602">
        <ele>359.888775</ele>
        <time>2022-02-09T08:20:32.912Z</time>
      </trkpt>
      <trkpt lat="49.498808" lon="8.140530">
        <ele>359.700989</ele>
        <time>2022-02-09T08:20:39.902Z</time>
      </trkpt>
      <trkpt lat="49.498857" lon="8.140410">
        <ele>359.516152</ele>
        <time>2022-02-09T08:20:44.905Z</time>
      </trkpt>
      <trkpt lat="49.498887" lon="8.140260">
        <ele>359.311490</ele>
        <time>2022-02-09T08:20:52.886Z</time>
      </trkpt>
      <trkpt lat="49.498897" lon="8.140112">
        <ele>359.117458</ele>
        <time>2022-02-09T08:21:01.895Z</time>
      </trkpt>
      <trkpt lat="49.498877" lon="8.139960">
        <ele>358.915225</ele>
        <time>2022-02-09T08:21:09.899Z</time>
      </trkpt>
      <trkpt lat="49.498822" lon="8.139840">
        <ele>358.723705</ele>
        <time>2022-02-09T08:21:15.891Z</time>
      </trkpt>
      <trkpt lat="49.498753" lon="8.139737">
        <ele>358.530749</ele>
        <time>2022-02-09T08:21:22.909Z</time>
      </trkpt>
      <trkpt lat="49.498668" lon="8.139682">
        <ele>358.345629</ele>
        <time>2022-02-09T08:21:29.897Z</time>
      </trkpt>
      <trkpt lat="49.498573" lon="8.139655">
        <ele>358.151666</ele>
        <time>2022-02-09T08:21:38.905Z</time>
      </trkpt>
      <trkpt lat="49.498478" lon="8.139700">
        <ele>357.952104</ele>
        <time>2022-02-09T08:21:45.892Z</time>
      </trkpt>
      <trkpt lat="49.498410" lon="8.139805">
        <ele>357.534550</ele>
        <time>2022-02-09T08:21:51.884Z</time>
      </trkpt>
      <trkpt lat="49.498332" lon="8.139885">
        <ele>356.782874</ele>
        <time>2022-02-09T08:22:00.891Z</time>
      </trkpt>
      <trkpt lat="49.498245" lon="8.139945">
        <ele>356.018304</ele>
        <time>2022-02-09T08:22:07.906Z</time>
      </trkpt>
      <trkpt lat="49.498147" lon="8.139978">
        <ele>355.213731</ele>
        <time>2022-02-09T08:22:15.897Z</time>
      </trkpt>
      <trkpt lat="49.498058" lon="8.140037">
        <ele>354.436568</ele>
        <time>2022-02-09T08:22:22.892Z</time>
      </trkpt>
      <trkpt lat="49.497965" lon="8.140067">
        <ele>353.674480</ele>
        <time>2022-02-09T08:22:28.897Z</time>
      </trkpt>
      <trkpt lat="49.497872" lon="8.140047">
        <ele>352.921345</ele>
        <time>2022-02-09T08:22:37.904Z</time>
      </trkpt>
      <trkpt lat="49.497778" lon="8.140033">
        <ele>352.163911</ele>
        <time>2022-02-09T08:22:45.887Z</time>
      </trkpt>
      <trkpt lat="49.497687" lon="8.140057">
        <ele>351.423428</ele>
        <time>2022-02-09T08:22:51.897Z</time>
      </trkpt>
      <trkpt lat="49.497585" lon="8.140048">
        <ele>350.604008</ele>
        <time>2022-02-09T08:22:58.892Z</time>
      </trkpt>
      <trkpt lat="49.497487" lon="8.140053">
        <ele>349.817580</ele>
        <time>2022-02-09T08:23:05.901Z</time>
      </trkpt>
      <trkpt lat="49.497395" lon="8.140053">
        <ele>349.079706</ele>
        <time>2022-02-09T08:23:13.898Z</time>
      </trkpt>
      <trkpt lat="49.497295" lon="8.140067">
        <ele>348.274361</ele>
        <time>2022-02-09T08:23:21.894Z</time>
      </trkpt>
      <trkpt lat="49.497198" lon="8.140045">
        <ele>347.487990</ele>
        <time>2022-02-09T08:23:29.890Z</time>
      </trkpt>
      <trkpt lat="49.497098" lon="8.140045">
        <ele>346.685953</ele>
        <time>2022-02-09T08:23:36.903Z</time>
      </trkpt>
      <trkpt lat="49.497012" lon="8.140002">
        <ele>345.960742</ele>
        <time>2022-02-09T08:23:42.892Z</time>
      </trkpt>
      <trkpt lat="49.496943" lon="8.139903">
        <ele>345.204298</ele>
        <time>2022-02-09T08:23:48.908Z</time>
      </trkpt>
      <trkpt lat="49.496878" lon="8.139803">
        <ele>344.467324</ele>
        <time>2022-02-09T08:23:54.898Z</time>
      </trkpt>
      <trkpt lat="49.496832" lon="8.139680">
        <ele>343.727971</ele>
        <time>2022-02-09T08:24:02.908Z</time>
      </trkpt>
      <trkpt lat="49.496795" lon="8.139550">
        <ele>343.019685</ele>
        <time>2022-02-09T08:24:08.890Z</time>
      </trkpt>
      <trkpt lat="49.496743" lon="8.139432">
        <ele>342.331930</ele>
        <time>2022-02-09T08:24:15.903Z</time>
      </trkpt>
      <trkpt lat="49.496678" lon="8.139327">
        <ele>341.632325</ele>
        <time>2022-02-09T08:24:22.906Z</time>
      </trkpt>
      <trkpt lat="49.496640" lon="8.139182">
        <ele>340.878196</ele>
        <time>2022-02-09T08:24:30.899Z</time>
      </trkpt>
      <trkpt lat="49.496572" lon="8.139063">
        <ele>340.113735</ele>
        <time>2022-02-09T08:24:38.903Z</time>
      </trkpt>
      <trkpt lat="49.496512" lon="8.138947">
        <ele>339.398520</ele>
        <time>2022-02-09T08:24:45.898Z</time>
      </trkpt>
      <trkpt lat="49.496473" lon="8.138815">
        <ele>338.699096</ele>
        <time>2022-02-09T08:24:52.910Z</time>
      </trkpt>
      <trkpt lat="49.496422" lon="8.138698">
        <ele>338.019489</ele>
        <time>2022-02-09T08:25:00.900Z</time>
      </trkpt>
      <trkpt lat="49.496373" lon="8.138577">
        <ele>337.331751</ele>
        <time>2022-02-09T08:25:07.897Z</time>
      </trkpt>
      <trkpt lat="49.496320" lon="8.138450">
        <ele>336.603673</ele>
        <time>2022-02-09T08:25:14.894Z</time>
      </trkpt>
      <trkpt lat="49.496262" lon="8.138322">
        <ele>335.850922</ele>
        <time>2022-02-09T08:25:20.896Z</time>
      </trkpt>
      <trkpt lat="49.496203" lon="8.138215">
        <ele>335.173953</ele>
        <time>2022-02-09T08:25:27.888Z</time>
      </trkpt>
      <trkpt lat="49.496162" lon="8.138092">
        <ele>334.507143</ele>
        <time>2022-02-09T08:25:33.900Z</time>
      </trkpt>
      <trkpt lat="49.496122" lon="8.137952">
        <ele>333.769461</ele>
        <time>2022-02-09T08:25:40.905Z</time>
      </trkpt>
      <trkpt lat="49.496075" lon="8.137828">
        <ele>333.077003</ele>
        <time>2022-02-09T08:25:47.900Z</time>
      </trkpt>
      <trkpt lat="49.496047" lon="8.137685">
        <ele>332.356636</ele>
        <time>2022-02-09T08:25:54.903Z</time>
      </trkpt>
      <trkpt lat="49.496000" lon="8.137563">
        <ele>331.672492</ele>
        <time>2022-02-09T08:26:01.896Z</time>
      </trkpt>
      <trkpt lat="49.495943" lon="8.137448">
        <ele>330.974773</ele>
        <time>2022-02-09T08:26:06.900Z</time>
      </trkpt>
      <trkpt lat="49.495910" lon="8.137315">
        <ele>330.288081</ele>
        <time>2022-02-09T08:26:13.907Z</time>
      </trkpt>
      <trkpt lat="49.495867" lon="8.137193">
        <ele>330.473413</ele>
        <time>2022-02-09T08:26:19.895Z</time>
      </trkpt>
      <trkpt lat="49.495797" lon="8.137088">
        <ele>331.181462</ele>
        <time>2022-02-09T08:26:25.894Z</time>
      </trkpt>
      <trkpt lat="49.495702" lon="8.137047">
        <ele>331.896269</ele>
        <time>2022-02-09T08:26:33.896Z</time>
      </trkpt>
      <trkpt lat="49.495607" lon="8.137063">
        <ele>332.588653</ele>
        <time>2022-02-09T08:26:39.896Z</time>
      </trkpt>
      <trkpt lat="49.495510" lon="8.137105">
        <ele>333.318683</ele>
        <time>2022-02-09T08:26:46.898Z</time>
      </trkpt>
      <trkpt lat="49.495425" lon="8.137168">
        <ele>334.002153</ele>
        <time>2022-02-09T08:26:52.902Z</time>
      </trkpt>
      <trkpt lat="49.495330" lon="8.137222">
        <ele>334.735840</ele>
        <time>2022-02-09T08:26:58.902Z</time>
      </trkpt>
      <trkpt lat="49.495238" lon="8.137203">
        <ele>335.408353</ele>
        <time>2022-02-09T08:27:04.900Z</time>
      </trkpt>
      <trkpt lat="49.495148" lon="8.137213">
        <ele>336.062101</ele>
        <time>2022-02-09T08:27:26.890Z</time>
      </trkpt>
      <trkpt lat="49.495165" lon="8.137368">
        <ele>336.801816</ele>
        <time>2022-02-09T08:27:35.907Z</time>
      </trkpt>
      <trkpt lat="49.495193" lon="8.137510">
        <ele>337.500144</ele>
        <time>2022-02-09T08:27:42.907Z</time>
      </trkpt>
      <trkpt lat="49.495207" lon="8.137658">
        <ele>338.203940</ele>
        <time>2022-02-09T08:27:49.887Z</time>
      </trkpt>
      <trkpt lat="49.495203" lon="8.137807">
        <ele>338.905692</ele>
        <time>2022-02-09T08:27:57.902Z</time>
      </trkpt>
      <trkpt lat="49.495203" lon="8.137965">
        <ele>339.649197</ele>
        <time>2022-02-09T08:28:07.878Z</time>
      </trkpt>
      <trkpt lat="49.495167" lon="8.138100">
        <ele>340.335929</ele>
        <time>2022-02-09T08:28:16.914Z</time>
      </trkpt>
      <trkpt lat="49.495147" lon="8.138248">
        <ele>341.047292</ele>
        <time>2022-02-09T08:28:24.914Z</time>
      </trkpt>
      <trkpt lat="49.495143" lon="8.138407">
        <ele>341.796065</ele>
        <time>2022-02-09T08:28:33.897Z</time>
      </trkpt>
      <trkpt lat="49.495147" lon="8.138553">
        <ele>342.483713</ele>
        <time>2022-02-09T08:28:39.891Z</time>
      </trkpt>
      <trkpt lat="49.495122" lon="8.138698">
        <ele>343.145778</ele>
        <time>2022-02-09T08:28:44.901Z</time>
      </trkpt>
      <trkpt lat="49.495102" lon="8.138837">
        <ele>343.541338</ele>
        <time>2022-02-09T08:28:51.898Z</time>
      </trkpt>
      <trkpt lat="49.495097" lon="8.138980">
        <ele>343.939225</ele>
        <time>2022-02-09T08:28:58.888Z</time>
      </trkpt>
      <trkpt lat="49.495078" lon="8.139123">
        <ele>344.344764</ele>
        <time>2022-02-09T08:29:06.895Z</time>
      </trkpt>
      <trkpt lat="49.495062" lon="8.139277">
        <ele>344.778078</ele>
        <time>2022-02-09T08:29:15.891Z</time>
      </trkpt>
      <trkpt lat="49.495057" lon="8.139432">
        <ele>345.209261</ele>
        <time>2022-02-09T08:29:24.898Z</time>
      </trkpt>
      <trkpt lat="49.495037" lon="8.139568">
        <ele>345.596688</ele>
        <time>2022-02-09T08:29:30.905Z</time>
      </trkpt>
      <trkpt lat="49.494987" lon="8.139692">
        <ele>346.002202</ele>
        <time>2022-02-09T08:29:37.893Z</time>
      </trkpt>
      <trkpt lat="49.494968" lon="8.139828">
        <ele>346.388707</ele>
        <time>2022-02-09T08:29:45.907Z</time>
      </trkpt>
      <trkpt lat="49.494928" lon="8.139953">
        <ele>346.775871</ele>
        <time>2022-02-09T08:29:51.899Z</time>
      </trkpt>
      <trkpt lat="49.494897" lon="8.140107">
        <ele>347.223824</ele>
        <time>2022-02-09T08:29:58.896Z</time>
      </trkpt>
      <trkpt lat="49.494843" lon="8.140237">
        <ele>347.652566</ele>
        <time>2022-02-09T08:30:07.896Z</time>
      </trkpt>
      <trkpt lat="49.494792" lon="8.140363">
        <ele>348.065059</ele>
        <time>2022-02-09T08:30:15.898Z</time>
      </trkpt>
      <trkpt lat="49.494732" lon="8.140477">
        <ele>348.472733</ele>
        <time>2022-02-09T08:30:22.892Z</time>
      </trkpt>
      <trkpt lat="49.494677" lon="8.140595">
        <ele>348.876269</ele>
        <time>2022-02-09T08:30:29.903Z</time>
      </trkpt>
      <trkpt lat="49.494602" lon="8.140685">
        <ele>349.283034</ele>
        <time>2022-02-09T08:30:36.904Z</time>
      </trkpt>
      <trkpt lat="49.494523" lon="8.140760">
        <ele>349.680052</ele>
        <time>2022-02-09T08:30:43.911Z</time>
      </trkpt>
      <trkpt lat="49.494427" lon="8.140823">
        <ele>350.126458</ele>
        <time>2022-02-09T08:30:51.901Z</time>
      </trkpt>
      <trkpt lat="49.494333" lon="8.140833">
        <ele>350.529517</ele>
        <time>2022-02-09T08:30:58.892Z</time>
      </trkpt>
      <trkpt lat="49.494243" lon="8.140852">
        <ele>351.086770</ele>
        <time>2022-02-09T08:31:03.890Z</time>
      </trkpt>
      <trkpt lat="49.494143" lon="8.140838">
        <ele>352.027856</ele>
        <time>2022-02-09T08:31:11.895Z</time>
      </trkpt>
      <trkpt lat="49.494047" lon="8.140860">
        <ele>352.937499</ele>
        <time>2022-02-09T08:31:19.895Z</time>
      </trkpt>
      <trkpt lat="49.493957" lon="8.140820">
        <ele>353.815440</ele>
        <time>2022-02-09T08:31:26.914Z</time>
      </trkpt>
      <trkpt lat="49.493900" lon="8.140570">
        <ele>355.428354</ele>
        <time>2022-02-09T08:32:16.907Z</time>
      </trkpt>
      <trkpt lat="49.493895" lon="8.140422">
        <ele>356.330524</ele>
        <time>2022-02-09T08:32:26.899Z</time>
      </trkpt>
      <trkpt lat="49.493888" lon="8.140270">
        <ele>357.258148</ele>
        <time>2022-02-09T08:32:34.904Z</time>
      </trkpt>
      <trkpt lat="49.493877" lon="8.140118">
        <ele>358.189176</ele>
        <time>2022-02-09T08:32:41.886Z</time>
      </trkpt>
      <trkpt lat="49.493862" lon="8.139982">
        <ele>359.028929</ele>
        <time>2022-02-09T08:32:51.907Z</time>
      </trkpt>
      <trkpt lat="49.493858" lon="8.139832">
        <ele>359.942825</ele>
        <time>2022-02-09T08:33:02.906Z</time>
      </trkpt>
      <trkpt lat="49.493843" lon="8.139680">
        <ele>360.878746</ele>
        <time>2022-02-09T08:33:11.899Z</time>
      </trkpt>
      <trkpt lat="49.493845" lon="8.139532">
        <ele>361.779893</ele>
        <time>2022-02-09T08:33:21.895Z</time>
      </trkpt>
      <trkpt lat="49.493832" lon="8.139375">
        <ele>362.743368</ele>
        <time>2022-02-09T08:33:30.905Z</time>
      </trkpt>
      <trkpt lat="49.493808" lon="8.139238">
        <ele>363.607159</ele>
        <time>2022-02-09T08:33:37.900Z</time>
      </trkpt>
      <trkpt lat="49.493755" lon="8.139120">
        <ele>364.480504</ele>
        <time>2022-02-09T08:33:45.887Z</time>
      </trkpt>
      <trkpt lat="49.493733" lon="8.138973">
        <ele>365.398818</ele>
        <time>2022-02-09T08:33:52.894Z</time>
      </trkpt>
      <trkpt lat="49.493703" lon="8.138828">
        <ele>366.325209</ele>
        <time>2022-02-09T08:33:59.885Z</time>
      </trkpt>
      <trkpt lat="49.493690" lon="8.138683">
        <ele>367.216270</ele>
        <time>2022-02-09T08:34:08.900Z</time>
      </trkpt>
      <trkpt lat="49.493668" lon="8.138545">
        <ele>368.044324</ele>
        <time>2022-02-09T08:34:19.895Z</time>
      </trkpt>
      <trkpt lat="49.493643" lon="8.138408">
        <ele>368.839068</ele>
        <time>2022-02-09T08:34:26.905Z</time>
      </trkpt>
      <trkpt lat="49.493615" lon="8.138263">
        <ele>369.683898</ele>
        <time>2022-02-09T08:34:35.895Z</time>
      </trkpt>
      <trkpt lat="49.493585" lon="8.138125">
        <ele>370.496626</ele>
        <time>2022-02-09T08:34:43.907Z</time>
      </trkpt>
      <trkpt lat="49.493538" lon="8.137983">
        <ele>371.386702</ele>
        <time>2022-02-09T08:34:51.898Z</time>
      </trkpt>
      <trkpt lat="49.493518" lon="8.137840">
        <ele>372.203639</ele>
        <time>2022-02-09T08:34:58.898Z</time>
      </trkpt>
      <trkpt lat="49.493477" lon="8.137713">
        <ele>372.995692</ele>
        <time>2022-02-09T08:35:06.899Z</time>
      </trkpt>
      <trkpt lat="49.493450" lon="8.137580">
        <ele>373.773911</ele>
        <time>2022-02-09T08:35:15.898Z</time>
      </trkpt>
      <trkpt lat="49.493367" lon="8.137517">
        <ele>374.569585</ele>
        <time>2022-02-09T08:35:37.899Z</time>
      </trkpt>
      <trkpt lat="49.493315" lon="8.137640">
        <ele>375.389214</ele>
        <time>2022-02-09T08:35:58.887Z</time>
      </trkpt>
      <trkpt lat="49.493235" lon="8.137738">
        <ele>376.268251</ele>
        <time>2022-02-09T08:36:06.898Z</time>
      </trkpt>
      <trkpt lat="49.493153" lon="8.137805">
        <ele>377.066448</ele>
        <time>2022-02-09T08:36:14.889Z</time>
      </trkpt>
      <trkpt lat="49.493098" lon="8.137692">
        <ele>377.855064</ele>
        <time>2022-02-09T08:36:23.905Z</time>
      </trkpt>
      <trkpt lat="49.493018" lon="8.137623">
        <ele>378.643513</ele>
        <time>2022-02-09T08:36:35.910Z</time>
      </trkpt>
      <trkpt lat="49.492948" lon="8.137528">
        <ele>379.445857</ele>
        <time>2022-02-09T08:36:42.899Z</time>
      </trkpt>
      <trkpt lat="49.492888" lon="8.137408">
        <ele>380.291611</ele>
        <time>2022-02-09T08:36:51.901Z</time>
      </trkpt>
      <trkpt lat="49.492838" lon="8.137282">
        <ele>381.116243</ele>
        <time>2022-02-09T08:37:02.898Z</time>
      </trkpt>
      <trkpt lat="49.492807" lon="8.137142">
        <ele>381.942317</ele>
        <time>2022-02-09T08:37:11.907Z</time>
      </trkpt>
      <trkpt lat="49.492783" lon="8.136977">
        <ele>382.886653</ele>
        <time>2022-02-09T08:37:20.897Z</time>
      </trkpt>
      <trkpt lat="49.492770" lon="8.136830">
        <ele>383.963749</ele>
        <time>2022-02-09T08:37:29.897Z</time>
      </trkpt>
      <trkpt lat="49.492763" lon="8.136685">
        <ele>385.103256</ele>
        <time>2022-02-09T08:37:38.891Z</time>
      </trkpt>
      <trkpt lat="49.492772" lon="8.136537">
        <ele>386.268211</ele>
        <time>2022-02-09T08:37:46.902Z</time>
      </trkpt>
      <trkpt lat="49.492772" lon="8.136395">
        <ele>387.381073</ele>
        <time>2022-02-09T08:37:56.898Z</time>
      </trkpt>
      <trkpt lat="49.492790" lon="8.136252">
        <ele>388.522620</ele>
        <time>2022-02-09T08:38:03.899Z</time>
      </trkpt>
      <trkpt lat="49.492792" lon="8.136113">
        <ele>389.612237</ele>
        <time>2022-02-09T08:38:12.901Z</time>
      </trkpt>
      <trkpt lat="49.492820" lon="8.135973">
        <ele>390.760257</ele>
        <time>2022-02-09T08:38:20.893Z</time>
      </trkpt>
      <trkpt lat="49.492838" lon="8.135825">
        <ele>391.940297</ele>
        <time>2022-02-09T08:38:29.899Z</time>
      </trkpt>
      <trkpt lat="49.492857" lon="8.135668">
        <ele>393.191886</ele>
        <time>2022-02-09T08:38:37.894Z</time>
      </trkpt>
      <trkpt lat="49.492858" lon="8.135518">
        <ele>394.367503</ele>
        <time>2022-02-09T08:38:47.894Z</time>
      </trkpt>
      <trkpt lat="49.492873" lon="8.135380">
        <ele>395.464053</ele>
        <time>2022-02-09T08:38:57.898Z</time>
      </trkpt>
      <trkpt lat="49.492925" lon="8.135265">
        <ele>396.562189</ele>
        <time>2022-02-09T08:39:04.884Z</time>
      </trkpt>
      <trkpt lat="49.492943" lon="8.135100">
        <ele>397.873409</ele>
        <time>2022-02-09T08:39:13.891Z</time>
      </trkpt>
      <trkpt lat="49.492955" lon="8.134953">
        <ele>399.034514</ele>
        <time>2022-02-09T08:39:19.905Z</time>
      </trkpt>
      <trkpt lat="49.492947" lon="8.134805">
        <ele>400.198403</ele>
        <time>2022-02-09T08:39:29.895Z</time>
      </trkpt>
      <trkpt lat="49.492937" lon="8.134657">
        <ele>401.364541</ele>
        <time>2022-02-09T08:39:38.904Z</time>
      </trkpt>
      <trkpt lat="49.492930" lon="8.134505">
        <ele>402.558759</ele>
        <time>2022-02-09T08:39:47.899Z</time>
      </trkpt>
      <trkpt lat="49.492942" lon="8.134355">
        <ele>403.743196</ele>
        <time>2022-02-09T08:39:56.904Z</time>
      </trkpt>
      <trkpt lat="49.492938" lon="8.134212">
        <ele>404.847201</ele>
        <time>2022-02-09T08:40:03.900Z</time>
      </trkpt>
      <trkpt lat="49.492932" lon="8.134072">
        <ele>405.644915</ele>
        <time>2022-02-09T08:40:10.890Z</time>
      </trkpt>
      <trkpt lat="49.492912" lon="8.133917">
        <ele>406.543402</ele>
        <time>2022-02-09T08:40:21.893Z</time>
      </trkpt>
      <trkpt lat="49.492935" lon="8.133760">
        <ele>407.458462</ele>
        <time>2022-02-09T08:40:28.895Z</time>
      </trkpt>
      <trkpt lat="49.492913" lon="8.133607">
        <ele>408.349418</ele>
        <time>2022-02-09T08:40:37.894Z</time>
      </trkpt>
      <trkpt lat="49.492907" lon="8.133460">
        <ele>409.186849</ele>
        <time>2022-02-09T08:40:44.891Z</time>
      </trkpt>
      <trkpt lat="49.492902" lon="8.133315">
        <ele>410.012422</ele>
        <time>2022-02-09T08:40:54.896Z</time>
      </trkpt>
      <trkpt lat="49.492925" lon="8.133160">
        <ele>410.916393</ele>
        <time>2022-02-09T08:41:00.894Z</time>
      </trkpt>
      <trkpt lat="49.492915" lon="8.133008">
        <ele>411.785025</ele>
        <time>2022-02-09T08:41:09.896Z</time>
      </trkpt>
      <trkpt lat="49.492910" lon="8.132868">
        <ele>412.582211</ele>
        <time>2022-02-09T08:41:16.899Z</time>
      </trkpt>
      <trkpt lat="49.492908" lon="8.132718">
        <ele>413.435230</ele>
        <time>2022-02-09T08:41:27.894Z</time>
      </trkpt>
      <trkpt lat="49.492897" lon="8.132580">
        <ele>414.225729</ele>
        <time>2022-02-09T08:41:33.895Z</time>
      </trkpt>
      <trkpt lat="49.492908" lon="8.132430">
        <ele>415.083986</ele>
        <time>2022-02-09T08:41:41.901Z</time>
      </trkpt>
      <trkpt lat="49.492960" lon="8.132302">
        <ele>415.942361</ele>
        <time>2022-02-09T08:41:49.893Z</time>
      </trkpt>
      <trkpt lat="49.493063" lon="8.132280">
        <ele>416.852580</ele>
        <time>2022-02-09T08:41:58.886Z</time>
      </trkpt>
      <trkpt lat="49.493153" lon="8.132318">
        <ele>417.669460</ele>
        <time>2022-02-09T08:42:06.900Z</time>
      </trkpt>
      <trkpt lat="49.493233" lon="8.132385">
        <ele>418.466626</ele>
        <time>2022-02-09T08:42:14.891Z</time>
      </trkpt>
      <trkpt lat="49.493317" lon="8.132460">
        <ele>419.316600</ele>
        <time>2022-02-09T08:42:23.900Z</time>
      </trkpt>
      <trkpt lat="49.493425" lon="8.132490">
        <ele>420.277214</ele>
        <time>2022-02-09T08:42:31.904Z</time>
      </trkpt>
      <trkpt lat="49.493518" lon="8.132543">
        <ele>420.830846</ele>
        <time>2022-02-09T08:42:40.891Z</time>
      </trkpt>
      <trkpt lat="49.493607" lon="8.132610">
        <ele>421.244340</ele>
        <time>2022-02-09T08:42:47.905Z</time>
      </trkpt>
      <trkpt lat="49.493697" lon="8.132650">
        <ele>421.635316</ele>
        <time>2022-02-09T08:42:57.894Z</time>
      </trkpt>
      <trkpt lat="49.493777" lon="8.132713">
        <ele>422.010361</ele>
        <time>2022-02-09T08:43:04.893Z</time>
      </trkpt>
      <trkpt lat="49.493850" lon="8.132812">
        <ele>422.416395</ele>
        <time>2022-02-09T08:43:13.903Z</time>
      </trkpt>
      <trkpt lat="49.493932" lon="8.132892">
        <ele>422.821573</ele>
        <time>2022-02-09T08:43:21.902Z</time>
      </trkpt>
      <trkpt lat="49.494027" lon="8.132905">
        <ele>423.219642</ele>
        <time>2022-02-09T08:43:39.903Z</time>
      </trkpt>
      <trkpt lat="49.494127" lon="8.132960">
        <ele>423.662850</ele>
        <time>2022-02-09T08:44:46.899Z</time>
      </trkpt>
      <trkpt lat="49.494148" lon="8.132825">
        <ele>424.039178</ele>
        <time>2022-02-09T08:47:17.899Z</time>
      </trkpt>
      <trkpt lat="49.494202" lon="8.132703">
        <ele>424.439408</ele>
        <time>2022-02-09T08:47:24.897Z</time>
      </trkpt>
      <trkpt lat="49.494248" lon="8.132577">
        <ele>424.831247</ele>
        <time>2022-02-09T08:47:34.891Z</time>
      </trkpt>
      <trkpt lat="49.494285" lon="8.132435">
        <ele>425.246022</ele>
        <time>2022-02-09T08:47:42.891Z</time>
      </trkpt>
      <trkpt lat="49.494313" lon="8.132283">
        <ele>425.674338</ele>
        <time>2022-02-09T08:47:51.891Z</time>
      </trkpt>
      <trkpt lat="49.494338" lon="8.132122">
        <ele>426.123100</ele>
        <time>2022-02-09T08:47:59.898Z</time>
      </trkpt>
      <trkpt lat="49.494387" lon="8.131992">
        <ele>426.530565</ele>
        <time>2022-02-09T08:48:05.907Z</time>
      </trkpt>
      <trkpt lat="49.494387" lon="8.131843">
        <ele>426.934495</ele>
        <time>2022-02-09T08:48:14.899Z</time>
      </trkpt>
      <trkpt lat="49.494413" lon="8.131682">
        <ele>427.384245</ele>
        <time>2022-02-09T08:48:22.902Z</time>
      </trkpt>
      <trkpt lat="49.494447" lon="8.131537">
        <ele>427.802162</ele>
        <time>2022-02-09T08:48:28.893Z</time>
      </trkpt>
      <trkpt lat="49.494485" lon="8.131410">
        <ele>428.158014</ele>
        <time>2022-02-09T08:48:36.900Z</time>
      </trkpt>
      <trkpt lat="49.494508" lon="8.131270">
        <ele>428.479510</ele>
        <time>2022-02-09T08:48:41.892Z</time>
      </trkpt>
      <trkpt lat="49.494527" lon="8.131133">
        <ele>428.791387</ele>
        <time>2022-02-09T08:48:51.882Z</time>
      </trkpt>
      <trkpt lat="49.494540" lon="8.130988">
        <ele>429.117260</ele>
        <time>2022-02-09T08:48:58.877Z</time>
      </trkpt>
      <trkpt lat="49.494540" lon="8.130847">
        <ele>429.431167</ele>
        <time>2022-02-09T08:49:05.900Z</time>
      </trkpt>
      <trkpt lat="49.494577" lon="8.130707">
        <ele>429.767661</ele>
        <time>2022-02-09T08:49:12.893Z</time>
      </trkpt>
      <trkpt lat="49.494632" lon="8.130585">
        <ele>430.098280</ele>
        <time>2022-02-09T08:49:20.895Z</time>
      </trkpt>
      <trkpt lat="49.494697" lon="8.130470">
        <ele>430.437669</ele>
        <time>2022-02-09T08:49:28.900Z</time>
      </trkpt>
      <trkpt lat="49.494762" lon="8.130373">
        <ele>430.747944</ele>
        <time>2022-02-09T08:49:35.896Z</time>
      </trkpt>
      <trkpt lat="49.494837" lon="8.130268">
        <ele>431.095403</ele>
        <time>2022-02-09T08:49:42.906Z</time>
      </trkpt>
      <trkpt lat="49.494897" lon="8.130153">
        <ele>431.423795</ele>
        <time>2022-02-09T08:49:49.909Z</time>
      </trkpt>
      <trkpt lat="49.494970" lon="8.130060">
        <ele>431.748563</ele>
        <time>2022-02-09T08:49:56.899Z</time>
      </trkpt>
      <trkpt lat="49.495060" lon="8.130068">
        <ele>432.057559</ele>
        <time>2022-02-09T08:50:05.905Z</time>
      </trkpt>
      <trkpt lat="49.495133" lon="8.130148">
        <ele>432.364687</ele>
        <time>2022-02-09T08:50:11.897Z</time>
      </trkpt>
      <trkpt lat="49.495208" lon="8.130235">
        <ele>432.686553</ele>
        <time>2022-02-09T08:50:18.888Z</time>
      </trkpt>
      <trkpt lat="49.495280" lon="8.130335">
        <ele>433.018917</ele>
        <time>2022-02-09T08:50:26.902Z</time>
      </trkpt>
      <trkpt lat="49.495350" lon="8.130433">
        <ele>433.343211</ele>
        <time>2022-02-09T08:50:31.896Z</time>
      </trkpt>
      <trkpt lat="49.495417" lon="8.130547">
        <ele>433.685482</ele>
        <time>2022-02-09T08:50:37.905Z</time>
      </trkpt>
      <trkpt lat="49.495452" lon="8.130680">
        <ele>434.004953</ele>
        <time>2022-02-09T08:50:43.898Z</time>
      </trkpt>
      <trkpt lat="49.495503" lon="8.130803">
        <ele>434.181694</ele>
        <time>2022-02-09T08:50:51.899Z</time>
      </trkpt>
      <trkpt lat="49.495578" lon="8.130913">
        <ele>434.073075</ele>
        <time>2022-02-09T08:50:59.902Z</time>
      </trkpt>
      <trkpt lat="49.495660" lon="8.131003">
        <ele>433.967477</ele>
        <time>2022-02-09T08:51:07.895Z</time>
      </trkpt>
      <trkpt lat="49.495750" lon="8.131060">
        <ele>433.865429</ele>
        <time>2022-02-09T08:51:15.889Z</time>
      </trkpt>
      <trkpt lat="49.495808" lon="8.131172">
        <ele>433.767869</ele>
        <time>2022-02-09T08:51:21.907Z</time>
      </trkpt>
      <trkpt lat="49.495878" lon="8.131263">
        <ele>433.671800</ele>
        <time>2022-02-09T08:51:27.915Z</time>
      </trkpt>
      <trkpt lat="49.495955" lon="8.131340">
        <ele>433.575521</ele>
        <time>2022-02-09T08:51:33.905Z</time>
      </trkpt>
      <trkpt lat="49.496032" lon="8.131425">
        <ele>433.476168</ele>
        <time>2022-02-09T08:51:41.887Z</time>
      </trkpt>
      <trkpt lat="49.496128" lon="8.131483">
        <ele>433.368028</ele>
        <time>2022-02-09T08:51:50.893Z</time>
      </trkpt>
      <trkpt lat="49.496228" lon="8.131465">
        <ele>433.262453</ele>
        <time>2022-02-09T08:51:57.901Z</time>
      </trkpt>
      <trkpt lat="49.496320" lon="8.131445">
        <ele>433.165024</ele>
        <time>2022-02-09T08:52:04.899Z</time>
      </trkpt>
      <trkpt lat="49.496410" lon="8.131432">
        <ele>433.070234</ele>
        <time>2022-02-09T08:52:15.903Z</time>
      </trkpt>
      <trkpt lat="49.496497" lon="8.131353">
        <ele>432.964320</ele>
        <time>2022-02-09T08:52:28.899Z</time>
      </trkpt>
      <trkpt lat="49.496565" lon="8.131258">
        <ele>432.868035</ele>
        <time>2022-02-09T08:52:35.898Z</time>
      </trkpt>
      <trkpt lat="49.496617" lon="8.131133">
        <ele>432.766936</ele>
        <time>2022-02-09T08:52:42.912Z</time>
      </trkpt>
      <trkpt lat="49.496612" lon="8.130990">
        <ele>432.669403</ele>
        <time>2022-02-09T08:52:52.898Z</time>
      </trkpt>
      <trkpt lat="49.496625" lon="8.130837">
        <ele>432.564311</ele>
        <time>2022-02-09T08:53:01.901Z</time>
      </trkpt>
      <trkpt lat="49.496635" lon="8.130697">
        <ele>432.468387</ele>
        <time>2022-02-09T08:53:08.898Z</time>
      </trkpt>
      <trkpt lat="49.496570" lon="8.130593">
        <ele>432.370088</ele>
        <time>2022-02-09T08:53:18.901Z</time>
      </trkpt>
      <trkpt lat="49.496515" lon="8.130477">
        <ele>433.183723</ele>
        <time>2022-02-09T08:53:29.894Z</time>
      </trkpt>
      <trkpt lat="49.496473" lon="8.130338">
        <ele>434.718957</ele>
        <time>2022-02-09T08:53:40.905Z</time>
      </trkpt>
      <trkpt lat="49.496425" lon="8.130210">
        <ele>436.199088</ele>
        <time>2022-02-09T08:53:49.881Z</time>
      </trkpt>
      <trkpt lat="49.496383" lon="8.130085">
        <ele>437.608450</ele>
        <time>2022-02-09T08:53:58.891Z</time>
      </trkpt>
      <trkpt lat="49.496325" lon="8.129973">
        <ele>439.042916</ele>
        <time>2022-02-09T08:54:10.907Z</time>
      </trkpt>
      <trkpt lat="49.496242" lon="8.129893">
        <ele>440.552729</ele>
        <time>2022-02-09T08:54:20.898Z</time>
      </trkpt>
      <trkpt lat="49.496223" lon="8.129748">
        <ele>442.034053</ele>
        <time>2022-02-09T08:54:31.897Z</time>
      </trkpt>
      <trkpt lat="49.496175" lon="8.129620">
        <ele>443.514189</ele>
        <time>2022-02-09T08:54:40.899Z</time>
      </trkpt>
      <trkpt lat="49.496140" lon="8.129485">
        <ele>444.969841</ele>
        <time>2022-02-09T08:55:03.899Z</time>
      </trkpt>
      <trkpt lat="49.496123" lon="8.129345">
        <ele>446.396131</ele>
        <time>2022-02-09T08:55:11.896Z</time>
      </trkpt>
      <trkpt lat="49.496082" lon="8.129222">
        <ele>447.780634</ele>
        <time>2022-02-09T08:55:27.910Z</time>
      </trkpt>
      <trkpt lat="49.496092" lon="8.129070">
        <ele>449.310594</ele>
        <time>2022-02-09T08:55:39.896Z</time>
      </trkpt>
      <trkpt lat="49.496112" lon="8.128925">
        <ele>450.795047</ele>
        <time>2022-02-09T08:55:48.902Z</time>
      </trkpt>
      <trkpt lat="49.496170" lon="8.128790">
        <ele>452.415981</ele>
        <time>2022-02-09T08:55:59.905Z</time>
      </trkpt>
      <trkpt lat="49.496233" lon="8.128688">
        <ele>453.825561</ele>
        <time>2022-02-09T08:56:09.902Z</time>
      </trkpt>
      <trkpt lat="49.496272" lon="8.128553">
        <ele>455.305183</ele>
        <time>2022-02-09T08:56:20.886Z</time>
      </trkpt>
      <trkpt lat="49.496307" lon="8.128413">
        <ele>456.807450</ele>
        <time>2022-02-09T08:56:35.904Z</time>
      </trkpt>
      <trkpt lat="49.496340" lon="8.128278">
        <ele>458.251950</ele>
        <time>2022-02-09T08:56:47.897Z</time>
      </trkpt>
      <trkpt lat="49.496348" lon="8.128133">
        <ele>459.709243</ele>
        <time>2022-02-09T08:56:56.897Z</time>
      </trkpt>
      <trkpt lat="49.496368" lon="8.127992">
        <ele>460.470773</ele>
        <time>2022-02-09T08:57:07.901Z</time>
      </trkpt>
      <trkpt lat="49.496372" lon="8.127852">
        <ele>460.995349</ele>
        <time>2022-02-09T08:57:18.892Z</time>
      </trkpt>
      <trkpt lat="49.496398" lon="8.127708">
        <ele>461.554832</ele>
        <time>2022-02-09T08:57:26.898Z</time>
      </trkpt>
      <trkpt lat="49.496455" lon="8.127598">
        <ele>462.081593</ele>
        <time>2022-02-09T08:57:36.890Z</time>
      </trkpt>
      <trkpt lat="49.496507" lon="8.127453">
        <ele>462.701622</ele>
        <time>2022-02-09T08:57:44.899Z</time>
      </trkpt>
      <trkpt lat="49.496553" lon="8.127333">
        <ele>463.223225</ele>
        <time>2022-02-09T08:57:50.910Z</time>
      </trkpt>
      <trkpt lat="49.496572" lon="8.127193">
        <ele>463.758610</ele>
        <time>2022-02-09T08:57:58.897Z</time>
      </trkpt>
      <trkpt lat="49.496563" lon="8.127052">
        <ele>464.288964</ele>
        <time>2022-02-09T08:58:09.905Z</time>
      </trkpt>
      <trkpt lat="49.496555" lon="8.126897">
        <ele>464.871010</ele>
        <time>2022-02-09T08:58:19.899Z</time>
      </trkpt>
      <trkpt lat="49.496592" lon="8.126747">
        <ele>465.471641</ele>
        <time>2022-02-09T08:58:28.901Z</time>
      </trkpt>
      <trkpt lat="49.496607" lon="8.126610">
        <ele>465.991713</ele>
        <time>2022-02-09T08:58:36.896Z</time>
      </trkpt>
      <trkpt lat="49.496702" lon="8.126568">
        <ele>466.561368</ele>
        <time>2022-02-09T08:59:12.932Z</time>
      </trkpt>
      <trkpt lat="49.496792" lon="8.126537">
        <ele>467.092902</ele>
        <time>2022-02-09T08:59:20.922Z</time>
      </trkpt>
      <trkpt lat="49.496892" lon="8.126495">
        <ele>467.690308</ele>
        <time>2022-02-09T08:59:27.922Z</time>
      </trkpt>
      <trkpt lat="49.496985" lon="8.126497">
        <ele>468.226363</ele>
        <time>2022-02-09T08:59:35.908Z</time>
      </trkpt>
      <trkpt lat="49.497078" lon="8.126503">
        <ele>468.762836</ele>
        <time>2022-02-09T08:59:41.924Z</time>
      </trkpt>
      <trkpt lat="49.497175" lon="8.126532">
        <ele>469.332334</ele>
        <time>2022-02-09T08:59:48.927Z</time>
      </trkpt>
      <trkpt lat="49.497263" lon="8.126485">
        <ele>469.869167</ele>
        <time>2022-02-09T08:59:59.922Z</time>
      </trkpt>
      <trkpt lat="49.497350" lon="8.126428">
        <ele>470.414098</ele>
        <time>2022-02-09T09:00:06.923Z</time>
      </trkpt>
      <trkpt lat="49.497440" lon="8.126395">
        <ele>471.147748</ele>
        <time>2022-02-09T09:00:13.933Z</time>
      </trkpt>
      <trkpt lat="49.497527" lon="8.126330">
        <ele>471.920621</ele>
        <time>2022-02-09T09:00:19.910Z</time>
      </trkpt>
      <trkpt lat="49.497625" lon="8.126307">
        <ele>472.712917</ele>
        <time>2022-02-09T09:00:27.909Z</time>
      </trkpt>
      <trkpt lat="49.497702" lon="8.126223">
        <ele>473.467141</ele>
        <time>2022-02-09T09:00:32.909Z</time>
      </trkpt>
      <trkpt lat="49.497757" lon="8.126110">
        <ele>474.200141</ele>
        <time>2022-02-09T09:00:44.900Z</time>
      </trkpt>
      <trkpt lat="49.497648" lon="8.125885">
        <ele>475.657198</ele>
        <time>2022-02-09T09:02:19.930Z</time>
      </trkpt>
      <trkpt lat="49.497650" lon="8.125747">
        <ele>476.373715</ele>
        <time>2022-02-09T09:02:29.938Z</time>
      </trkpt>
      <trkpt lat="49.497637" lon="8.125597">
        <ele>477.159246</ele>
        <time>2022-02-09T09:02:40.928Z</time>
      </trkpt>
      <trkpt lat="49.497577" lon="8.125490">
        <ele>477.893039</ele>
        <time>2022-02-09T09:02:52.920Z</time>
      </trkpt>
      <trkpt lat="49.497527" lon="8.125362">
        <ele>478.668386</ele>
        <time>2022-02-09T09:03:04.914Z</time>
      </trkpt>
      <trkpt lat="49.497467" lon="8.125248">
        <ele>479.430054</ele>
        <time>2022-02-09T09:03:14.907Z</time>
      </trkpt>
      <trkpt lat="49.497390" lon="8.125162">
        <ele>480.190328</ele>
        <time>2022-02-09T09:03:23.913Z</time>
      </trkpt>
      <trkpt lat="49.497318" lon="8.125067">
        <ele>480.948169</ele>
        <time>2022-02-09T09:03:34.904Z</time>
      </trkpt>
      <trkpt lat="49.497265" lon="8.124945">
        <ele>481.710066</ele>
        <time>2022-02-09T09:03:42.922Z</time>
      </trkpt>
      <trkpt lat="49.497225" lon="8.124820">
        <ele>482.433410</ele>
        <time>2022-02-09T09:03:50.918Z</time>
      </trkpt>
      <trkpt lat="49.497053" lon="8.124727">
        <ele>483.890395</ele>
        <time>2022-02-09T09:05:00.989Z</time>
      </trkpt>
      <trkpt lat="49.496963" lon="8.124755">
        <ele>484.624243</ele>
        <time>2022-02-09T09:05:08.928Z</time>
      </trkpt>
      <trkpt lat="49.496875" lon="8.124792">
        <ele>485.359816</ele>
        <time>2022-02-09T09:05:16.923Z</time>
      </trkpt>
      <trkpt lat="49.496778" lon="8.124768">
        <ele>486.154309</ele>
        <time>2022-02-09T09:05:25.899Z</time>
      </trkpt>
      <trkpt lat="49.496680" lon="8.124752">
        <ele>486.951268</ele>
        <time>2022-02-09T09:05:35.923Z</time>
      </trkpt>
      <trkpt lat="49.496588" lon="8.124765">
        <ele>487.698389</ele>
        <time>2022-02-09T09:05:45.937Z</time>
      </trkpt>
      <trkpt lat="49.496497" lon="8.124807">
        <ele>488.466650</ele>
        <time>2022-02-09T09:05:52.913Z</time>
      </trkpt>
      <trkpt lat="49.496392" lon="8.124808">
        <ele>489.315790</ele>
        <time>2022-02-09T09:06:00.896Z</time>
      </trkpt>
      <trkpt lat="49.496312" lon="8.124872">
        <ele>490.044862</ele>
        <time>2022-02-09T09:06:09.912Z</time>
      </trkpt>
      <trkpt lat="49.496217" lon="8.124878">
        <ele>490.813764</ele>
        <time>2022-02-09T09:06:19.911Z</time>
      </trkpt>
      <trkpt lat="49.496118" lon="8.124900">
        <ele>491.622662</ele>
        <time>2022-02-09T09:06:28.928Z</time>
      </trkpt>
      <trkpt lat="49.496037" lon="8.124962">
        <ele>492.354184</ele>
        <time>2022-02-09T09:06:36.915Z</time>
      </trkpt>
      <trkpt lat="49.495940" lon="8.124975">
        <ele>493.141579</ele>
        <time>2022-02-09T09:06:45.919Z</time>
      </trkpt>
      <trkpt lat="49.495850" lon="8.124930">
        <ele>493.906818</ele>
        <time>2022-02-09T09:06:51.914Z</time>
      </trkpt>
      <trkpt lat="49.495750" lon="8.124912">
        <ele>494.721015</ele>
        <time>2022-02-09T09:06:58.915Z</time>
      </trkpt>
      <trkpt lat="49.495660" lon="8.124860">
        <ele>495.498397</ele>
        <time>2022-02-09T09:07:07.912Z</time>
      </trkpt>
      <trkpt lat="49.495567" lon="8.124822">
        <ele>496.276513</ele>
        <time>2022-02-09T09:07:19.914Z</time>
      </trkpt>
      <trkpt lat="49.495467" lon="8.124797">
        <ele>497.095794</ele>
        <time>2022-02-09T09:07:32.940Z</time>
      </trkpt>
      <trkpt lat="49.495380" lon="8.124738">
        <ele>497.864581</ele>
        <time>2022-02-09T09:07:41.921Z</time>
      </trkpt>
      <trkpt lat="49.495288" lon="8.124770">
        <ele>498.627325</ele>
        <time>2022-02-09T09:07:55.915Z</time>
      </trkpt>
      <trkpt lat="49.495373" lon="8.124845">
        <ele>499.328544</ele>
        <time>2022-02-09T09:08:21.915Z</time>
      </trkpt>
      <trkpt lat="49.495457" lon="8.124920">
        <ele>499.088788</ele>
        <time>2022-02-09T09:08:29.924Z</time>
      </trkpt>
      <trkpt lat="49.495530" lon="8.125030">
        <ele>498.836584</ele>
        <time>2022-02-09T09:08:35.921Z</time>
      </trkpt>
      <trkpt lat="49.495523" lon="8.125187">
        <ele>498.584211</ele>
        <time>2022-02-09T09:08:43.934Z</time>
      </trkpt>
      <trkpt lat="49.495452" lon="8.125302">
        <ele>498.329762</ele>
        <time>2022-02-09T09:08:52.901Z</time>
      </trkpt>
      <trkpt lat="49.495390" lon="8.125422">
        <ele>498.083857</ele>
        <time>2022-02-09T09:09:00.923Z</time>
      </trkpt>
      <trkpt lat="49.495403" lon="8.125563">
        <ele>497.855469</ele>
        <time>2022-02-09T09:09:08.910Z</time>
      </trkpt>
      <trkpt lat="49.495407" lon="8.125703">
        <ele>497.630734</ele>
        <time>2022-02-09T09:09:17.909Z</time>
      </trkpt>
      <trkpt lat="49.495432" lon="8.125838">
        <ele>497.405607</ele>
        <time>2022-02-09T09:09:25.925Z</time>
      </trkpt>
      <trkpt lat="49.495458" lon="8.125975">
        <ele>497.176714</ele>
        <time>2022-02-09T09:09:33.905Z</time>
      </trkpt>
      <trkpt lat="49.495467" lon="8.126115">
        <ele>496.951099</ele>
        <time>2022-02-09T09:09:43.915Z</time>
      </trkpt>
      <trkpt lat="49.495500" lon="8.126257">
        <ele>496.709236</ele>
        <time>2022-02-09T09:09:50.911Z</time>
      </trkpt>
      <trkpt lat="49.495513" lon="8.126408">
        <ele>496.464961</ele>
        <time>2022-02-09T09:09:58.936Z</time>
      </trkpt>
      <trkpt lat="49.495522" lon="8.126555">
        <ele>496.228172</ele>
        <time>2022-02-09T09:10:06.919Z</time>
      </trkpt>
      <trkpt lat="49.495503" lon="8.126703">
        <ele>495.986234</ele>
        <time>2022-02-09T09:10:14.904Z</time>
      </trkpt>
      <trkpt lat="49.495468" lon="8.126840">
        <ele>495.750143</ele>
        <time>2022-02-09T09:10:22.897Z</time>
      </trkpt>
      <trkpt lat="49.495367" lon="8.126878">
        <ele>495.493426</ele>
        <time>2022-02-09T09:10:29.913Z</time>
      </trkpt>
      <trkpt lat="49.495275" lon="8.126922">
        <ele>495.255563</ele>
        <time>2022-02-09T09:10:36.905Z</time>
      </trkpt>
      <trkpt lat="49.495173" lon="8.126972">
        <ele>494.991258</ele>
        <time>2022-02-09T09:10:43.935Z</time>
      </trkpt>
      <trkpt lat="49.495078" lon="8.127017">
        <ele>495.239443</ele>
        <time>2022-02-09T09:10:52.023Z</time>
      </trkpt>
      <trkpt lat="49.494990" lon="8.127065">
        <ele>495.707057</ele>
        <time>2022-02-09T09:11:01.019Z</time>
      </trkpt>
      <trkpt lat="49.494893" lon="8.127137">
        <ele>496.246422</ele>
        <time>2022-02-09T09:11:09.029Z</time>
      </trkpt>
      <trkpt lat="49.494803" lon="8.127167">
        <ele>496.707654</ele>
        <time>2022-02-09T09:11:17.034Z</time>
      </trkpt>
      <trkpt lat="49.494707" lon="8.127207">
        <ele>497.205792</ele>
        <time>2022-02-09T09:11:25.025Z</time>
      </trkpt>
      <trkpt lat="49.494628" lon="8.127282">
        <ele>497.670663</ele>
        <time>2022-02-09T09:11:32.032Z</time>
      </trkpt>
      <trkpt lat="49.494527" lon="8.127327">
        <ele>498.197305</ele>
        <time>2022-02-09T09:11:40.029Z</time>
      </trkpt>
      <trkpt lat="49.494435" lon="8.127387">
        <ele>498.697748</ele>
        <time>2022-02-09T09:11:46.011Z</time>
      </trkpt>
      <trkpt lat="49.494343" lon="8.127457">
        <ele>499.211754</ele>
        <time>2022-02-09T09:11:54.024Z</time>
      </trkpt>
      <trkpt lat="49.494252" lon="8.127510">
        <ele>499.699074</ele>
        <time>2022-02-09T09:12:03.037Z</time>
      </trkpt>
      <trkpt lat="49.494150" lon="8.127553">
        <ele>500.228773</ele>
        <time>2022-02-09T09:12:14.024Z</time>
      </trkpt>
      <trkpt lat="49.494057" lon="8.127580">
        <ele>500.702797</ele>
        <time>2022-02-09T09:12:20.025Z</time>
      </trkpt>
      <trkpt lat="49.493972" lon="8.127632">
        <ele>501.160920</ele>
        <time>2022-02-09T09:12:29.022Z</time>
      </trkpt>
      <trkpt lat="49.493813" lon="8.127800">
        <ele>502.126822</ele>
        <time>2022-02-09T09:13:08.073Z</time>
      </trkpt>
      <trkpt lat="49.493755" lon="8.127908">
        <ele>502.582726</ele>
        <time>2022-02-09T09:13:15.043Z</time>
      </trkpt>
      <trkpt lat="49.493662" lon="8.127957">
        <ele>503.075063</ele>
        <time>2022-02-09T09:13:24.036Z</time>
      </trkpt>
      <trkpt lat="49.493580" lon="8.128033">
        <ele>503.554462</ele>
        <time>2022-02-09T09:13:32.009Z</time>
      </trkpt>
      <trkpt lat="49.493512" lon="8.128137">
        <ele>504.040852</ele>
        <time>2022-02-09T09:13:45.023Z</time>
      </trkpt>
      <trkpt lat="49.493432" lon="8.128222">
        <ele>504.553988</ele>
        <time>2022-02-09T09:13:54.052Z</time>
      </trkpt>
      <trkpt lat="49.493345" lon="8.128308">
        <ele>505.099787</ele>
        <time>2022-02-09T09:14:02.032Z</time>
      </trkpt>
      <trkpt lat="49.493268" lon="8.128397">
        <ele>505.608084</ele>
        <time>2022-02-09T09:14:10.036Z</time>
      </trkpt>
      <trkpt lat="49.493195" lon="8.128488">
        <ele>506.103945</ele>
        <time>2022-02-09T09:14:18.041Z</time>
      </trkpt>
      <trkpt lat="49.493122" lon="8.128578">
        <ele>506.597655</ele>
        <time>2022-02-09T09:14:25.035Z</time>
      </trkpt>
      <trkpt lat="49.493030" lon="8.128637">
        <ele>507.123781</ele>
        <time>2022-02-09T09:14:41.040Z</time>
      </trkpt>
      <trkpt lat="49.492933" lon="8.128648">
        <ele>507.637238</ele>
        <time>2022-02-09T09:14:47.039Z</time>
      </trkpt>
      <trkpt lat="49.492852" lon="8.128585">
        <ele>508.116313</ele>
        <time>2022-02-09T09:14:55.046Z</time>
      </trkpt>
      <trkpt lat="49.492767" lon="8.128525">
        <ele>508.609952</ele>
        <time>2022-02-09T09:15:03.053Z</time>
      </trkpt>
      <trkpt lat="49.492675" lon="8.128497">
        <ele>509.105026</ele>
        <time>2022-02-09T09:15:10.036Z</time>
      </trkpt>
      <trkpt lat="49.492583" lon="8.128443">
        <ele>509.624801</ele>
        <time>2022-02-09T09:15:16.039Z</time>
      </trkpt>
      <trkpt lat="49.492492" lon="8.128460">
        <ele>510.108720</ele>
        <time>2022-02-09T09:15:24.036Z</time>
      </trkpt>
      <trkpt lat="49.492425" lon="8.128585">
        <ele>510.664438</ele>
        <time>2022-02-09T09:15:33.027Z</time>
      </trkpt>
      <trkpt lat="49.492375" lon="8.128707">
        <ele>511.159089</ele>
        <time>2022-02-09T09:15:42.054Z</time>
      </trkpt>
      <trkpt lat="49.492300" lon="8.128795">
        <ele>511.656900</ele>
        <time>2022-02-09T09:15:50.068Z</time>
      </trkpt>
      <trkpt lat="49.492215" lon="8.128857">
        <ele>512.153438</ele>
        <time>2022-02-09T09:15:57.036Z</time>
      </trkpt>
      <trkpt lat="49.492147" lon="8.128958">
        <ele>512.652246</ele>
        <time>2022-02-09T09:16:03.055Z</time>
      </trkpt>
      <trkpt lat="49.492060" lon="8.129007">
        <ele>513.141295</ele>
        <time>2022-02-09T09:16:10.032Z</time>
      </trkpt>
      <trkpt lat="49.491975" lon="8.129068">
        <ele>513.610884</ele>
        <time>2022-02-09T09:16:20.029Z</time>
      </trkpt>
      <trkpt lat="49.491883" lon="8.129133">
        <ele>514.084296</ele>
        <time>2022-02-09T09:16:29.040Z</time>
      </trkpt>
      <trkpt lat="49.491810" lon="8.129213">
        <ele>514.503367</ele>
        <time>2022-02-09T09:16:35.045Z</time>
      </trkpt>
      <trkpt lat="49.491733" lon="8.129303">
        <ele>514.955509</ele>
        <time>2022-02-09T09:16:42.025Z</time>
      </trkpt>
      <trkpt lat="49.491687" lon="8.129423">
        <ele>515.378797</ele>
        <time>2022-02-09T09:16:49.045Z</time>
      </trkpt>
      <trkpt lat="49.491607" lon="8.129487">
        <ele>515.800441</ele>
        <time>2022-02-09T09:16:58.004Z</time>
      </trkpt>
      <trkpt lat="49.491513" lon="8.129447">
        <ele>516.256545</ele>
        <time>2022-02-09T09:17:07.027Z</time>
      </trkpt>
      <trkpt lat="49.491433" lon="8.129375">
        <ele>516.689932</ele>
        <time>2022-02-09T09:17:16.040Z</time>
      </trkpt>
      <trkpt lat="49.491393" lon="8.129238">
        <ele>517.146231</ele>
        <time>2022-02-09T09:17:26.051Z</time>
      </trkpt>
      <trkpt lat="49.491318" lon="8.129142">
        <ele>517.602393</ele>
        <time>2022-02-09T09:17:41.046Z</time>
      </trkpt>
      <trkpt lat="49.491232" lon="8.129063">
        <ele>518.070757</ele>
        <time>2022-02-09T09:17:51.008Z</time>
      </trkpt>
      <trkpt lat="49.491163" lon="8.128973">
        <ele>518.493707</ele>
        <time>2022-02-09T09:17:58.028Z</time>
      </trkpt>
      <trkpt lat="49.491110" lon="8.128845">
        <ele>518.954840</ele>
        <time>2022-02-09T09:18:07.044Z</time>
      </trkpt>
      <trkpt lat="49.491055" lon="8.128728">
        <ele>519.393585</ele>
        <time>2022-02-09T09:18:15.040Z</time>
      </trkpt>
      <trkpt lat="49.490995" lon="8.128613">
        <ele>519.841683</ele>
        <time>2022-02-09T09:18:23.046Z</time>
      </trkpt>
      <trkpt lat="49.490952" lon="8.128465">
        <ele>520.334217</ele>
        <time>2022-02-09T09:18:32.033Z</time>
      </trkpt>
      <trkpt lat="49.490872" lon="8.128357">
        <ele>520.831840</ele>
        <time>2022-02-09T09:18:38.037Z</time>
      </trkpt>
      <trkpt lat="49.490797" lon="8.128265">
        <ele>521.280333</ele>
        <time>2022-02-09T09:18:45.039Z</time>
      </trkpt>
      <trkpt lat="49.490743" lon="8.128140">
        <ele>521.736382</ele>
        <time>2022-02-09T09:18:54.047Z</time>
      </trkpt>
      <trkpt lat="49.490685" lon="8.128023">
        <ele>521.891924</ele>
        <time>2022-02-09T09:19:02.029Z</time>
      </trkpt>
      <trkpt lat="49.490650" lon="8.127880">
        <ele>521.978763</ele>
        <time>2022-02-09T09:19:09.027Z</time>
      </trkpt>
      <trkpt lat="49.490627" lon="8.127735">
        <ele>522.063582</ele>
        <time>2022-02-09T09:19:16.038Z</time>
      </trkpt>
      <trkpt lat="49.490540" lon="8.127665">
        <ele>522.149460</ele>
        <time>2022-02-09T09:19:25.037Z</time>
      </trkpt>
      <trkpt lat="49.490493" lon="8.127543">
        <ele>522.230064</ele>
        <time>2022-02-09T09:19:33.051Z</time>
      </trkpt>
      <trkpt lat="49.490470" lon="8.127395">
        <ele>522.316541</ele>
        <time>2022-02-09T09:19:43.037Z</time>
      </trkpt>
      <trkpt lat="49.490423" lon="8.127263">
        <ele>522.402082</ele>
        <time>2022-02-09T09:19:50.040Z</time>
      </trkpt>
      <trkpt lat="49.490345" lon="8.127180">
        <ele>522.485032</ele>
        <time>2022-02-09T09:19:59.033Z</time>
      </trkpt>
      <trkpt lat="49.490280" lon="8.127075">
        <ele>522.567457</ele>
        <time>2022-02-09T09:20:07.026Z</time>
      </trkpt>
      <trkpt lat="49.490240" lon="8.126933">
        <ele>522.655411</ele>
        <time>2022-02-09T09:20:15.028Z</time>
      </trkpt>
      <trkpt lat="49.490192" lon="8.126808">
        <ele>522.737928</ele>
        <time>2022-02-09T09:20:21.028Z</time>
      </trkpt>
      <trkpt lat="49.490167" lon="8.126653">
        <ele>522.828685</ele>
        <time>2022-02-09T09:20:27.022Z</time>
      </trkpt>
      <trkpt lat="49.490172" lon="8.126508">
        <ele>522.911200</ele>
        <time>2022-02-09T09:20:38.016Z</time>
      </trkpt>
      <trkpt lat="49.490083" lon="8.126392">
        <ele>523.013216</ele>
        <time>2022-02-09T09:21:13.061Z</time>
      </trkpt>
      <trkpt lat="49.490033" lon="8.126252">
        <ele>523.104006</ele>
        <time>2022-02-09T09:21:23.038Z</time>
      </trkpt>
      <trkpt lat="49.489985" lon="8.126130">
        <ele>523.185060</ele>
        <time>2022-02-09T09:21:29.039Z</time>
      </trkpt>
      <trkpt lat="49.489927" lon="8.126000">
        <ele>523.274682</ele>
        <time>2022-02-09T09:21:37.049Z</time>
      </trkpt>
      <trkpt lat="49.489853" lon="8.125883">
        <ele>523.367481</ele>
        <time>2022-02-09T09:21:46.044Z</time>
      </trkpt>
      <trkpt lat="49.489785" lon="8.125787">
        <ele>523.296949</ele>
        <time>2022-02-09T09:21:57.033Z</time>
      </trkpt>
      <trkpt lat="49.489713" lon="8.125697">
        <ele>523.131975</ele>
        <time>2022-02-09T09:22:06.039Z</time>
      </trkpt>
      <trkpt lat="49.489630" lon="8.125643">
        <ele>522.971694</ele>
        <time>2022-02-09T09:22:13.040Z</time>
      </trkpt>
      <trkpt lat="49.489572" lon="8.125527">
        <ele>522.802553</ele>
        <time>2022-02-09T09:22:22.034Z</time>
      </trkpt>
      <trkpt lat="49.489492" lon="8.125435">
        <ele>522.624930</ele>
        <time>2022-02-09T09:22:30.025Z</time>
      </trkpt>
      <trkpt lat="49.489423" lon="8.125340">
        <ele>522.460269</ele>
        <time>2022-02-09T09:22:38.040Z</time>
      </trkpt>
      <trkpt lat="49.489347" lon="8.125238">
        <ele>522.280921</ele>
        <time>2022-02-09T09:22:46.045Z</time>
      </trkpt>
      <trkpt lat="49.489295" lon="8.125103">
        <ele>522.099570</ele>
        <time>2022-02-09T09:22:54.041Z</time>
      </trkpt>
      <trkpt lat="49.489245" lon="8.124988">
        <ele>521.939674</ele>
        <time>2022-02-09T09:23:02.048Z</time>
      </trkpt>
      <trkpt lat="49.489165" lon="8.124913">
        <ele>521.773061</ele>
        <time>2022-02-09T09:23:09.051Z</time>
      </trkpt>
      <trkpt lat="49.489110" lon="8.124787">
        <ele>521.597655</ele>
        <time>2022-02-09T09:23:19.041Z</time>
      </trkpt>
      <trkpt lat="49.489037" lon="8.124693">
        <ele>521.428367</ele>
        <time>2022-02-09T09:23:27.031Z</time>
      </trkpt>
      <trkpt lat="49.488977" lon="8.124575">
        <ele>521.255218</ele>
        <time>2022-02-09T09:23:35.038Z</time>
      </trkpt>
      <trkpt lat="49.488925" lon="8.124462">
        <ele>521.095206</ele>
        <time>2022-02-09T09:23:43.039Z</time>
      </trkpt>
      <trkpt lat="49.488843" lon="8.124383">
        <ele>520.923138</ele>
        <time>2022-02-09T09:23:50.054Z</time>
      </trkpt>
      <trkpt lat="49.488797" lon="8.124265">
        <ele>520.764124</ele>
        <time>2022-02-09T09:23:57.043Z</time>
      </trkpt>
      <trkpt lat="49.488763" lon="8.124132">
        <ele>520.598973</ele>
        <time>2022-02-09T09:24:06.031Z</time>
      </trkpt>
      <trkpt lat="49.488683" lon="8.124060">
        <ele>520.434136</ele>
        <time>2022-02-09T09:24:17.035Z</time>
      </trkpt>
      <trkpt lat="49.488613" lon="8.123953">
        <ele>520.258666</ele>
        <time>2022-02-09T09:24:31.031Z</time>
      </trkpt>
      <trkpt lat="49.488538" lon="8.123857">
        <ele>519.902037</ele>
        <time>2022-02-09T09:24:42.043Z</time>
      </trkpt>
      <trkpt lat="49.488477" lon="8.123753">
        <ele>519.479581</ele>
        <time>2022-02-09T09:24:56.035Z</time>
      </trkpt>
      <trkpt lat="49.488408" lon="8.123640">
        <ele>519.012008</ele>
        <time>2022-02-09T09:25:10.073Z</time>
      </trkpt>
      <trkpt lat="49.488358" lon="8.123525">
        <ele>518.594796</ele>
        <time>2022-02-09T09:25:20.029Z</time>
      </trkpt>
      <trkpt lat="49.488287" lon="8.123437">
        <ele>518.171735</ele>
        <time>2022-02-09T09:25:26.050Z</time>
      </trkpt>
      <trkpt lat="49.488247" lon="8.123310">
        <ele>517.746204</ele>
        <time>2022-02-09T09:25:33.041Z</time>
      </trkpt>
      <trkpt lat="49.488177" lon="8.123212">
        <ele>517.307057</ele>
        <time>2022-02-09T09:25:42.046Z</time>
      </trkpt>
      <trkpt lat="49.488057" lon="8.123003">
        <ele>516.466076</ele>
        <time>2022-02-09T09:26:29.061Z</time>
      </trkpt>
      <trkpt lat="49.487968" lon="8.122970">
        <ele>516.041194</ele>
        <time>2022-02-09T09:26:37.036Z</time>
      </trkpt>
      <trkpt lat="49.487892" lon="8.122877">
        <ele>515.590594</ele>
        <time>2022-02-09T09:26:47.043Z</time>
      </trkpt>
      <trkpt lat="49.487797" lon="8.122845">
        <ele>515.139247</ele>
        <time>2022-02-09T09:26:56.045Z</time>
      </trkpt>
      <trkpt lat="49.487707" lon="8.122808">
        <ele>514.706898</ele>
        <time>2022-02-09T09:27:05.051Z</time>
      </trkpt>
      <trkpt lat="49.487623" lon="8.122752">
        <ele>514.282046</ele>
        <time>2022-02-09T09:27:12.031Z</time>
      </trkpt>
      <trkpt lat="49.487540" lon="8.122690">
        <ele>513.853866</ele>
        <time>2022-02-09T09:27:19.031Z</time>
      </trkpt>
      <trkpt lat="49.487438" lon="8.122665">
        <ele>513.374499</ele>
        <time>2022-02-09T09:27:27.030Z</time>
      </trkpt>
      <trkpt lat="49.487422" lon="8.122807">
        <ele>512.939976</ele>
        <time>2022-02-09T09:27:38.039Z</time>
      </trkpt>
      <trkpt lat="49.487460" lon="8.122932">
        <ele>512.523875</ele>
        <time>2022-02-09T09:27:46.038Z</time>
      </trkpt>
      <trkpt lat="49.487523" lon="8.123032">
        <ele>512.103877</ele>
        <time>2022-02-09T09:27:57.040Z</time>
      </trkpt>
      <trkpt lat="49.487577" lon="8.123143">
        <ele>511.575390</ele>
        <time>2022-02-09T09:28:05.034Z</time>
      </trkpt>
      <trkpt lat="49.487642" lon="8.123240">
        <ele>510.874659</ele>
        <time>2022-02-09T09:28:14.047Z</time>
      </trkpt>
      <trkpt lat="49.487722" lon="8.123357">
        <ele>510.020523</ele>
        <time>2022-02-09T09:28:45.041Z</time>
      </trkpt>
      <trkpt lat="49.487765" lon="8.123497">
        <ele>509.241852</ele>
        <time>2022-02-09T09:28:52.028Z</time>
      </trkpt>
      <trkpt lat="49.487810" lon="8.123618">
        <ele>508.540785</ele>
        <time>2022-02-09T09:29:01.011Z</time>
      </trkpt>
      <trkpt lat="49.487853" lon="8.123757">
        <ele>507.766657</ele>
        <time>2022-02-09T09:29:11.085Z</time>
      </trkpt>
      <trkpt lat="49.487938" lon="8.123802">
        <ele>507.070904</ele>
        <time>2022-02-09T09:29:25.029Z</time>
      </trkpt>
      <trkpt lat="49.488012" lon="8.123938">
        <ele>506.178873</ele>
        <time>2022-02-09T09:29:57.042Z</time>
      </trkpt>
      <trkpt lat="49.488010" lon="8.124082">
        <ele>505.454646</ele>
        <time>2022-02-09T09:30:08.035Z</time>
      </trkpt>
      <trkpt lat="49.488048" lon="8.124207">
        <ele>504.760702</ele>
        <time>2022-02-09T09:30:14.049Z</time>
      </trkpt>
      <trkpt lat="49.488088" lon="8.124337">
        <ele>504.037417</ele>
        <time>2022-02-09T09:30:20.032Z</time>
      </trkpt>
      <trkpt lat="49.488140" lon="8.124455">
        <ele>503.320449</ele>
        <time>2022-02-09T09:30:28.042Z</time>
      </trkpt>
      <trkpt lat="49.488180" lon="8.124580">
        <ele>502.619804</ele>
        <time>2022-02-09T09:30:36.048Z</time>
      </trkpt>
      <trkpt lat="49.488217" lon="8.124707">
        <ele>501.919943</ele>
        <time>2022-02-09T09:30:43.026Z</time>
      </trkpt>
      <trkpt lat="49.488297" lon="8.124797">
        <ele>501.152978</ele>
        <time>2022-02-09T09:30:51.022Z</time>
      </trkpt>
      <trkpt lat="49.488332" lon="8.124935">
        <ele>500.408079</ele>
        <time>2022-02-09T09:30:58.003Z</time>
      </trkpt>
      <trkpt lat="49.488403" lon="8.125053">
        <ele>499.599341</ele>
        <time>2022-02-09T09:31:06.053Z</time>
      </trkpt>
      <trkpt lat="49.488458" lon="8.125177">
        <ele>498.844370</ele>
        <time>2022-02-09T09:31:13.021Z</time>
      </trkpt>
      <trkpt lat="49.488543" lon="8.125243">
        <ele>498.107481</ele>
        <time>2022-02-09T09:31:21.033Z</time>
      </trkpt>
      <trkpt lat="49.488618" lon="8.125342">
        <ele>497.343298</ele>
        <time>2022-02-09T09:31:29.050Z</time>
      </trkpt>
      <trkpt lat="49.488682" lon="8.125448">
        <ele>496.616319</ele>
        <time>2022-02-09T09:31:36.053Z</time>
      </trkpt>
      <trkpt lat="49.488752" lon="8.125543">
        <ele>495.894666</ele>
        <time>2022-02-09T09:31:47.042Z</time>
      </trkpt>
      <trkpt lat="49.488790" lon="8.125673">
        <ele>495.178542</ele>
        <time>2022-02-09T09:31:54.039Z</time>
      </trkpt>
      <trkpt lat="49.488858" lon="8.125780">
        <ele>494.426580</ele>
        <time>2022-02-09T09:32:01.037Z</time>
      </trkpt>
      <trkpt lat="49.488900" lon="8.125903">
        <ele>493.728528</ele>
        <time>2022-02-09T09:32:08.041Z</time>
      </trkpt>
      <trkpt lat="49.488953" lon="8.126035">
        <ele>492.948987</ele>
        <time>2022-02-09T09:32:17.043Z</time>
      </trkpt>
      <trkpt lat="49.489002" lon="8.126172">
        <ele>492.163350</ele>
        <time>2022-02-09T09:32:26.048Z</time>
      </trkpt>
      <trkpt lat="49.489067" lon="8.126273">
        <ele>491.449145</ele>
        <time>2022-02-09T09:32:31.039Z</time>
      </trkpt>
      <trkpt lat="49.489122" lon="8.126385">
        <ele>490.743842</ele>
        <time>2022-02-09T09:32:39.034Z</time>
      </trkpt>
      <trkpt lat="49.489193" lon="8.126483">
        <ele>490.006399</ele>
        <time>2022-02-09T09:32:48.038Z</time>
      </trkpt>
      <trkpt lat="49.489240" lon="8.126603">
        <ele>489.302490</ele>
        <time>2022-02-09T09:32:56.036Z</time>
      </trkpt>
      <trkpt lat="49.489247" lon="8.126750">
        <ele>488.562064</ele>
        <time>2022-02-09T09:33:06.038Z</time>
      </trkpt>
      <trkpt lat="49.489253" lon="8.126893">
        <ele>487.842217</ele>
        <time>2022-02-09T09:33:12.043Z</time>
      </trkpt>
      <trkpt lat="49.489270" lon="8.127053">
        <ele>487.027787</ele>
        <time>2022-02-09T09:33:20.038Z</time>
      </trkpt>
      <trkpt lat="49.489310" lon="8.127195">
        <ele>486.250278</ele>
        <time>2022-02-09T09:33:29.035Z</time>
      </trkpt>
      <trkpt lat="49.489325" lon="8.127340">
        <ele>485.512703</ele>
        <time>2022-02-09T09:33:36.046Z</time>
      </trkpt>
      <trkpt lat="49.489373" lon="8.127470">
        <ele>484.761535</ele>
        <time>2022-02-09T09:33:43.047Z</time>
      </trkpt>
      <trkpt lat="49.489422" lon="8.127595">
        <ele>484.028133</ele>
        <time>2022-02-09T09:33:51.041Z</time>
      </trkpt>
      <trkpt lat="49.489450" lon="8.127727">
        <ele>482.525604</ele>
        <time>2022-02-09T09:33:58.049Z</time>
      </trkpt>
      <trkpt lat="49.489490" lon="8.127870">
        <ele>480.829702</ele>
        <time>2022-02-09T09:34:05.030Z</time>
      </trkpt>
      <trkpt lat="49.489535" lon="8.127990">
        <ele>479.320435</ele>
        <time>2022-02-09T09:34:11.032Z</time>
      </trkpt>
      <trkpt lat="49.489597" lon="8.128113">
        <ele>477.624607</ele>
        <time>2022-02-09T09:34:21.036Z</time>
      </trkpt>
      <trkpt lat="49.489640" lon="8.128240">
        <ele>476.064629</ele>
        <time>2022-02-09T09:34:31.043Z</time>
      </trkpt>
      <trkpt lat="49.489660" lon="8.128388">
        <ele>474.418032</ele>
        <time>2022-02-09T09:34:44.042Z</time>
      </trkpt>
      <trkpt lat="49.489667" lon="8.128530">
        <ele>472.866857</ele>
        <time>2022-02-09T09:34:51.034Z</time>
      </trkpt>
      <trkpt lat="49.489685" lon="8.128675">
        <ele>471.258871</ele>
        <time>2022-02-09T09:35:01.046Z</time>
      </trkpt>
      <trkpt lat="49.489708" lon="8.128813">
        <ele>469.707026</ele>
        <time>2022-02-09T09:35:09.039Z</time>
      </trkpt>
      <trkpt lat="49.489715" lon="8.128965">
        <ele>468.047220</ele>
        <time>2022-02-09T09:35:16.028Z</time>
      </trkpt>
      <trkpt lat="49.489750" lon="8.129093">
        <ele>466.534500</ele>
        <time>2022-02-09T09:35:35.039Z</time>
      </trkpt>
      <trkpt lat="49.489797" lon="8.129218">
        <ele>464.961304</ele>
        <time>2022-02-09T09:35:48.053Z</time>
      </trkpt>
      <trkpt lat="49.489805" lon="8.129367">
        <ele>463.332799</ele>
        <time>2022-02-09T09:35:57.032Z</time>
      </trkpt>
      <trkpt lat="49.489817" lon="8.129522">
        <ele>461.632526</ele>
        <time>2022-02-09T09:36:04.042Z</time>
      </trkpt>
      <trkpt lat="49.489882" lon="8.129623">
        <ele>460.083894</ele>
        <time>2022-02-09T09:36:12.029Z</time>
      </trkpt>
      <trkpt lat="49.489902" lon="8.129778">
        <ele>458.362586</ele>
        <time>2022-02-09T09:36:20.037Z</time>
      </trkpt>
      <trkpt lat="49.489902" lon="8.129922">
        <ele>456.794081</ele>
        <time>2022-02-09T09:36:26.029Z</time>
      </trkpt>
      <trkpt lat="49.489915" lon="8.130062">
        <ele>455.253644</ele>
        <time>2022-02-09T09:36:33.039Z</time>
      </trkpt>
      <trkpt lat="49.489945" lon="8.130210">
        <ele>453.598281</ele>
        <time>2022-02-09T09:36:41.040Z</time>
      </trkpt>
      <trkpt lat="49.489947" lon="8.130352">
        <ele>452.226555</ele>
        <time>2022-02-09T09:36:48.044Z</time>
      </trkpt>
      <trkpt lat="49.489948" lon="8.130498">
        <ele>450.816442</ele>
        <time>2022-02-09T09:36:55.003Z</time>
      </trkpt>
      <trkpt lat="49.489992" lon="8.130625">
        <ele>449.426356</ele>
        <time>2022-02-09T09:37:05.038Z</time>
      </trkpt>
      <trkpt lat="49.489988" lon="8.130773">
        <ele>447.995770</ele>
        <time>2022-02-09T09:37:18.026Z</time>
      </trkpt>
      <trkpt lat="49.490063" lon="8.130857">
        <ele>446.616813</ele>
        <time>2022-02-09T09:37:26.037Z</time>
      </trkpt>
      <trkpt lat="49.490047" lon="8.131148">
        <ele>443.796358</ele>
        <time>2022-02-09T09:37:59.049Z</time>
      </trkpt>
      <trkpt lat="49.490060" lon="8.131295">
        <ele>442.363572</ele>
        <time>2022-02-09T09:38:07.036Z</time>
      </trkpt>
      <trkpt lat="49.490073" lon="8.131455">
        <ele>440.806292</ele>
        <time>2022-02-09T09:38:14.038Z</time>
      </trkpt>
      <trkpt lat="49.490085" lon="8.131593">
        <ele>439.461634</ele>
        <time>2022-02-09T09:38:20.037Z</time>
      </trkpt>
      <trkpt lat="49.490115" lon="8.131732">
        <ele>438.047049</ele>
        <time>2022-02-09T09:38:28.038Z</time>
      </trkpt>
      <trkpt lat="49.490150" lon="8.131865">
        <ele>436.661167</ele>
        <time>2022-02-09T09:38:38.029Z</time>
      </trkpt>
      <trkpt lat="49.490178" lon="8.132005">
        <ele>435.246449</ele>
        <time>2022-02-09T09:38:45.036Z</time>
      </trkpt>
      <trkpt lat="49.490222" lon="8.132128">
        <ele>433.890331</ele>
        <time>2022-02-09T09:38:53.039Z</time>
      </trkpt>
      <trkpt lat="49.490255" lon="8.132270">
        <ele>432.433813</ele>
        <time>2022-02-09T09:39:01.043Z</time>
      </trkpt>
      <trkpt lat="49.490292" lon="8.132400">
        <ele>431.063083</ele>
        <time>2022-02-09T09:39:09.044Z</time>
      </trkpt>
      <trkpt lat="49.490343" lon="8.132527">
        <ele>429.621100</ele>
        <time>2022-02-09T09:39:16.031Z</time>
      </trkpt>
      <trkpt lat="49.490383" lon="8.132665">
        <ele>428.161672</ele>
        <time>2022-02-09T09:39:22.030Z</time>
      </trkpt>
      <trkpt lat="49.490412" lon="8.132797">
        <ele>426.802565</ele>
        <time>2022-02-09T09:39:29.047Z</time>
      </trkpt>
      <trkpt lat="49.490417" lon="8.132945">
        <ele>425.307968</ele>
        <time>2022-02-09T09:39:36.036Z</time>
      </trkpt>
      <trkpt lat="49.490440" lon="8.133090">
        <ele>423.802675</ele>
        <time>2022-02-09T09:39:47.048Z</time>
      </trkpt>
      <trkpt lat="49.490492" lon="8.133228">
        <ele>422.193736</ele>
        <time>2022-02-09T09:39:54.090Z</time>
      </trkpt>
      <trkpt lat="49.490532" lon="8.133365">
        <ele>420.678941</ele>
        <time>2022-02-09T09:40:01.039Z</time>
      </trkpt>
      <trkpt lat="49.490575" lon="8.133488">
        <ele>419.270251</ele>
        <time>2022-02-09T09:40:08.045Z</time>
      </trkpt>
      <trkpt lat="49.490627" lon="8.133615">
        <ele>417.756249</ele>
        <time>2022-02-09T09:40:16.042Z</time>
      </trkpt>
      <trkpt lat="49.490693" lon="8.133712">
        <ele>416.339586</ele>
        <time>2022-02-09T09:40:24.037Z</time>
      </trkpt>
      <trkpt lat="49.490750" lon="8.133838">
        <ele>414.791093</ele>
        <time>2022-02-09T09:40:31.033Z</time>
      </trkpt>
      <trkpt lat="49.490795" lon="8.133958">
        <ele>413.393712</ele>
        <time>2022-02-09T09:40:37.015Z</time>
      </trkpt>
      <trkpt lat="49.490832" lon="8.134092">
        <ele>411.925307</ele>
        <time>2022-02-09T09:40:43.037Z</time>
      </trkpt>
      <trkpt lat="49.490902" lon="8.134207">
        <ele>410.335917</ele>
        <time>2022-02-09T09:40:50.065Z</time>
      </trkpt>
      <trkpt lat="49.490967" lon="8.134325">
        <ele>408.775614</ele>
        <time>2022-02-09T09:40:57.050Z</time>
      </trkpt>
      <trkpt lat="49.491027" lon="8.134443">
        <ele>407.264359</ele>
        <time>2022-02-09T09:41:04.040Z</time>
      </trkpt>
      <trkpt lat="49.491085" lon="8.134567">
        <ele>405.723361</ele>
        <time>2022-02-09T09:41:11.045Z</time>
      </trkpt>
      <trkpt lat="49.491147" lon="8.134698">
        <ele>404.088762</ele>
        <time>2022-02-09T09:41:18.034Z</time>
      </trkpt>
      <trkpt lat="49.491202" lon="8.134813">
        <ele>402.648557</ele>
        <time>2022-02-09T09:41:24.032Z</time>
      </trkpt>
      <trkpt lat="49.491262" lon="8.134937">
        <ele>401.089214</ele>
        <time>2022-02-09T09:41:30.031Z</time>
      </trkpt>
      <trkpt lat="49.491290" lon="8.135073">
        <ele>399.650434</ele>
        <time>2022-02-09T09:41:37.051Z</time>
      </trkpt>
      <trkpt lat="49.491358" lon="8.135168">
        <ele>398.541980</ele>
        <time>2022-02-09T09:41:45.045Z</time>
      </trkpt>
      <trkpt lat="49.491400" lon="8.135303">
        <ele>397.527060</ele>
        <time>2022-02-09T09:41:52.042Z</time>
      </trkpt>
      <trkpt lat="49.491463" lon="8.135425">
        <ele>396.470310</ele>
        <time>2022-02-09T09:41:58.013Z</time>
      </trkpt>
      <trkpt lat="49.491507" lon="8.135553">
        <ele>395.488391</ele>
        <time>2022-02-09T09:42:06.049Z</time>
      </trkpt>
      <trkpt lat="49.491580" lon="8.135658">
        <ele>394.445562</ele>
        <time>2022-02-09T09:42:13.044Z</time>
      </trkpt>
      <trkpt lat="49.491633" lon="8.135788">
        <ele>393.404887</ele>
        <time>2022-02-09T09:42:20.051Z</time>
      </trkpt>
      <trkpt lat="49.491685" lon="8.135903">
        <ele>392.454827</ele>
        <time>2022-02-09T09:42:26.032Z</time>
      </trkpt>
      <trkpt lat="49.491757" lon="8.136013">
        <ele>391.396003</ele>
        <time>2022-02-09T09:42:32.045Z</time>
      </trkpt>
      <trkpt lat="49.491820" lon="8.136132">
        <ele>390.355103</ele>
        <time>2022-02-09T09:42:39.046Z</time>
      </trkpt>
      <trkpt lat="49.491850" lon="8.136267">
        <ele>389.387679</ele>
        <time>2022-02-09T09:42:46.021Z</time>
      </trkpt>
      <trkpt lat="49.491877" lon="8.136407">
        <ele>388.397484</ele>
        <time>2022-02-09T09:42:52.027Z</time>
      </trkpt>
      <trkpt lat="49.491908" lon="8.136540">
        <ele>387.439407</ele>
        <time>2022-02-09T09:42:58.043Z</time>
      </trkpt>
      <trkpt lat="49.491925" lon="8.136677">
        <ele>386.493712</ele>
        <time>2022-02-09T09:43:06.037Z</time>
      </trkpt>
      <trkpt lat="49.491943" lon="8.136813">
        <ele>385.552647</ele>
        <time>2022-02-09T09:43:28.049Z</time>
      </trkpt>
      <trkpt lat="49.492032" lon="8.136893">
        <ele>384.476876</ele>
        <time>2022-02-09T09:43:37.037Z</time>
      </trkpt>
      <trkpt lat="49.492080" lon="8.137028">
        <ele>383.433382</ele>
        <time>2022-02-09T09:43:47.037Z</time>
      </trkpt>
      <trkpt lat="49.492123" lon="8.137170">
        <ele>382.371102</ele>
        <time>2022-02-09T09:43:55.040Z</time>
      </trkpt>
      <trkpt lat="49.492153" lon="8.137315">
        <ele>381.339298</ele>
        <time>2022-02-09T09:44:02.038Z</time>
      </trkpt>
      <trkpt lat="49.492185" lon="8.137450">
        <ele>380.353926</ele>
        <time>2022-02-09T09:44:12.045Z</time>
      </trkpt>
      <trkpt lat="49.492183" lon="8.137593">
        <ele>379.183099</ele>
        <time>2022-02-09T09:44:29.035Z</time>
      </trkpt>
      <trkpt lat="49.492192" lon="8.137742">
        <ele>377.958167</ele>
        <time>2022-02-09T09:44:37.040Z</time>
      </trkpt>
      <trkpt lat="49.492217" lon="8.137882">
        <ele>376.769651</ele>
        <time>2022-02-09T09:44:44.031Z</time>
      </trkpt>
      <trkpt lat="49.492210" lon="8.138035">
        <ele>375.514136</ele>
        <time>2022-02-09T09:44:51.033Z</time>
      </trkpt>
      <trkpt lat="49.492230" lon="8.138188">
        <ele>374.236615</ele>
        <time>2022-02-09T09:44:58.034Z</time>
      </trkpt>
      <trkpt lat="49.492238" lon="8.138328">
        <ele>373.086192</ele>
        <time>2022-02-09T09:45:06.042Z</time>
      </trkpt>
      <trkpt lat="49.492230" lon="8.138487">
        <ele>371.780767</ele>
        <time>2022-02-09T09:45:13.048Z</time>
      </trkpt>
      <trkpt lat="49.492242" lon="8.138625">
        <ele>370.641064</ele>
        <time>2022-02-09T09:45:19.033Z</time>
      </trkpt>
      <trkpt lat="49.492270" lon="8.138760">
        <ele>369.481027</ele>
        <time>2022-02-09T09:45:29.052Z</time>
      </trkpt>
      <trkpt lat="49.492240" lon="8.138900">
        <ele>368.274279</ele>
        <time>2022-02-09T09:45:36.030Z</time>
      </trkpt>
      <trkpt lat="49.492222" lon="8.139045">
        <ele>367.065872</ele>
        <time>2022-02-09T09:45:41.041Z</time>
      </trkpt>
      <trkpt lat="49.492207" lon="8.139182">
        <ele>365.928611</ele>
        <time>2022-02-09T09:45:47.030Z</time>
      </trkpt>
      <trkpt lat="49.492218" lon="8.139340">
        <ele>364.627862</ele>
        <time>2022-02-09T09:45:53.035Z</time>
      </trkpt>
      <trkpt lat="49.492233" lon="8.139482">
        <ele>363.450223</ele>
        <time>2022-02-09T09:45:59.047Z</time>
      </trkpt>
      <trkpt lat="49.492230" lon="8.139627">
        <ele>362.262695</ele>
        <time>2022-02-09T09:46:07.041Z</time>
      </trkpt>
      <trkpt lat="49.492255" lon="8.139777">
        <ele>360.995066</ele>
        <time>2022-02-09T09:46:13.048Z</time>
      </trkpt>
      <trkpt lat="49.492260" lon="8.139918">
        <ele>359.839164</ele>
        <time>2022-02-09T09:46:20.040Z</time>
      </trkpt>
      <trkpt lat="49.492237" lon="8.140052">
        <ele>358.704632</ele>
        <time>2022-02-09T09:46:26.026Z</time>
      </trkpt>
      <trkpt lat="49.492240" lon="8.140210">
        <ele>357.586340</ele>
        <time>2022-02-09T09:46:33.034Z</time>
      </trkpt>
      <trkpt lat="49.492255" lon="8.140348">
        <ele>357.031526</ele>
        <time>2022-02-09T09:46:40.031Z</time>
      </trkpt>
      <trkpt lat="49.492277" lon="8.140500">
        <ele>356.414026</ele>
        <time>2022-02-09T09:46:47.036Z</time>
      </trkpt>
      <trkpt lat="49.492295" lon="8.140662">
        <ele>355.762325</ele>
        <time>2022-02-09T09:46:54.047Z</time>
      </trkpt>
      <trkpt lat="49.492298" lon="8.140802">
        <ele>355.206887</ele>
        <time>2022-02-09T09:46:59.043Z</time>
      </trkpt>
      <trkpt lat="49.492298" lon="8.140955">
        <ele>354.600204</ele>
        <time>2022-02-09T09:47:05.047Z</time>
      </trkpt>
      <trkpt lat="49.492302" lon="8.141107">
        <ele>353.996991</ele>
        <time>2022-02-09T09:47:13.023Z</time>
      </trkpt>
      <trkpt lat="49.492302" lon="8.141250">
        <ele>353.429960</ele>
        <time>2022-02-09T09:47:19.049Z</time>
      </trkpt>
      <trkpt lat="49.492317" lon="8.141395">
        <ele>352.847753</ele>
        <time>2022-02-09T09:47:25.036Z</time>
      </trkpt>
      <trkpt lat="49.492345" lon="8.141535">
        <ele>352.266899</ele>
        <time>2022-02-09T09:47:33.025Z</time>
      </trkpt>
      <trkpt lat="49.492348" lon="8.141675">
        <ele>351.711462</ele>
        <time>2022-02-09T09:47:38.042Z</time>
      </trkpt>
      <trkpt lat="49.492337" lon="8.141823">
        <ele>351.120776</ele>
        <time>2022-02-09T09:47:45.037Z</time>
      </trkpt>
      <trkpt lat="49.492348" lon="8.141963">
        <ele>350.561595</ele>
        <time>2022-02-09T09:47:51.053Z</time>
      </trkpt>
      <trkpt lat="49.492360" lon="8.142107">
        <ele>349.985920</ele>
        <time>2022-02-09T09:47:58.033Z</time>
      </trkpt>
      <trkpt lat="49.492362" lon="8.142255">
        <ele>349.398936</ele>
        <time>2022-02-09T09:48:05.046Z</time>
      </trkpt>
      <trkpt lat="49.492345" lon="8.142408">
        <ele>348.783441</ele>
        <time>2022-02-09T09:48:11.041Z</time>
      </trkpt>
      <trkpt lat="49.492352" lon="8.142563">
        <ele>348.167344</ele>
        <time>2022-02-09T09:48:18.032Z</time>
      </trkpt>
      <trkpt lat="49.492367" lon="8.142702">
        <ele>347.608620</ele>
        <time>2022-02-09T09:48:24.037Z</time>
      </trkpt>
      <trkpt lat="49.492375" lon="8.142842">
        <ele>347.051342</ele>
        <time>2022-02-09T09:48:31.043Z</time>
      </trkpt>
      <trkpt lat="49.492387" lon="8.142990">
        <ele>346.671666</ele>
        <time>2022-02-09T09:48:38.038Z</time>
      </trkpt>
      <trkpt lat="49.492388" lon="8.143132">
        <ele>346.491472</ele>
        <time>2022-02-09T09:48:44.042Z</time>
      </trkpt>
      <trkpt lat="49.492405" lon="8.143278">
        <ele>346.303261</ele>
        <time>2022-02-09T09:48:52.049Z</time>
      </trkpt>
      <trkpt lat="49.492418" lon="8.143433">
        <ele>346.104950</ele>
        <time>2022-02-09T09:49:01.045Z</time>
      </trkpt>
      <trkpt lat="49.492448" lon="8.143568">
        <ele>345.923902</ele>
        <time>2022-02-09T09:49:07.040Z</time>
      </trkpt>
      <trkpt lat="49.492460" lon="8.143728">
        <ele>345.719531</ele>
        <time>2022-02-09T09:49:13.050Z</time>
      </trkpt>
      <trkpt lat="49.492480" lon="8.143877">
        <ele>345.526472</ele>
        <time>2022-02-09T09:49:20.043Z</time>
      </trkpt>
      <trkpt lat="49.492485" lon="8.144028">
        <ele>345.334621</ele>
        <time>2022-02-09T09:49:29.034Z</time>
      </trkpt>
      <trkpt lat="49.492513" lon="8.144182">
        <ele>345.131701</ele>
        <time>2022-02-09T09:49:36.045Z</time>
      </trkpt>
      <trkpt lat="49.492535" lon="8.144328">
        <ele>344.941523</ele>
        <time>2022-02-09T09:49:43.048Z</time>
      </trkpt>
      <trkpt lat="49.492560" lon="8.144482">
        <ele>344.740104</ele>
        <time>2022-02-09T09:49:50.045Z</time>
      </trkpt>
      <trkpt lat="49.492583" lon="8.144630">
        <ele>344.547009</ele>
        <time>2022-02-09T09:49:57.041Z</time>
      </trkpt>
      <trkpt lat="49.492583" lon="8.144800">
        <ele>344.331298</ele>
        <time>2022-02-09T09:50:03.044Z</time>
      </trkpt>
      <trkpt lat="49.492612" lon="8.144950">
        <ele>344.132713</ele>
        <time>2022-02-09T09:50:10.051Z</time>
      </trkpt>
      <trkpt lat="49.492598" lon="8.145098">
        <ele>343.942937</ele>
        <time>2022-02-09T09:50:18.049Z</time>
      </trkpt>
      <trkpt lat="49.492570" lon="8.145245">
        <ele>343.748556</ele>
        <time>2022-02-09T09:50:25.027Z</time>
      </trkpt>
      <trkpt lat="49.492548" lon="8.145400">
        <ele>343.547237</ele>
        <time>2022-02-09T09:50:33.030Z</time>
      </trkpt>
      <trkpt lat="49.492518" lon="8.145542">
        <ele>343.357764</ele>
        <time>2022-02-09T09:50:40.033Z</time>
      </trkpt>
      <trkpt lat="49.492488" lon="8.145682">
        <ele>342.744930</ele>
        <time>2022-02-09T09:50:47.029Z</time>
      </trkpt>
      <trkpt lat="49.492497" lon="8.145828">
        <ele>341.647715</ele>
        <time>2022-02-09T09:50:53.046Z</time>
      </trkpt>
      <trkpt lat="49.492487" lon="8.145973">
        <ele>340.556793</ele>
        <time>2022-02-09T09:51:01.036Z</time>
      </trkpt>
      <trkpt lat="49.492463" lon="8.146117">
        <ele>339.444550</ele>
        <time>2022-02-09T09:51:08.033Z</time>
      </trkpt>
      <trkpt lat="49.492448" lon="8.146272">
        <ele>338.272109</ele>
        <time>2022-02-09T09:51:15.038Z</time>
      </trkpt>
      <trkpt lat="49.492465" lon="8.146410">
        <ele>337.221250</ele>
        <time>2022-02-09T09:51:21.025Z</time>
      </trkpt>
      <trkpt lat="49.492485" lon="8.146553">
        <ele>336.126868</ele>
        <time>2022-02-09T09:51:28.030Z</time>
      </trkpt>
      <trkpt lat="49.492508" lon="8.146695">
        <ele>335.031956</ele>
        <time>2022-02-09T09:51:35.029Z</time>
      </trkpt>
      <trkpt lat="49.492538" lon="8.146833">
        <ele>333.943214</ele>
        <time>2022-02-09T09:51:42.031Z</time>
      </trkpt>
      <trkpt lat="49.492592" lon="8.146947">
        <ele>332.887616</ele>
        <time>2022-02-09T09:51:49.035Z</time>
      </trkpt>
      <trkpt lat="49.492650" lon="8.147055">
        <ele>331.839207</ele>
        <time>2022-02-09T09:51:55.045Z</time>
      </trkpt>
      <trkpt lat="49.492708" lon="8.147183">
        <ele>330.671579</ele>
        <time>2022-02-09T09:52:02.055Z</time>
      </trkpt>
      <trkpt lat="49.492762" lon="8.147302">
        <ele>329.585536</ele>
        <time>2022-02-09T09:52:09.047Z</time>
      </trkpt>
      <trkpt lat="49.492823" lon="8.147407">
        <ele>328.531613</ele>
        <time>2022-02-09T09:52:15.040Z</time>
      </trkpt>
      <trkpt lat="49.492877" lon="8.147530">
        <ele>327.420907</ele>
        <time>2022-02-09T09:52:21.032Z</time>
      </trkpt>
      <trkpt lat="49.492932" lon="8.147660">
        <ele>326.260194</ele>
        <time>2022-02-09T09:52:28.039Z</time>
      </trkpt>
      <trkpt lat="49.493008" lon="8.147762">
        <ele>325.098893</ele>
        <time>2022-02-09T09:52:34.021Z</time>
      </trkpt>
      <trkpt lat="49.493078" lon="8.147862">
        <ele>323.998989</ele>
        <time>2022-02-09T09:52:41.033Z</time>
      </trkpt>
      <trkpt lat="49.493153" lon="8.147942">
        <ele>322.948051</ele>
        <time>2022-02-09T09:52:47.040Z</time>
      </trkpt>
      <trkpt lat="49.493243" lon="8.148002">
        <ele>322.011634</ele>
        <time>2022-02-09T09:52:54.017Z</time>
      </trkpt>
      <trkpt lat="49.493333" lon="8.148038">
        <ele>321.227107</ele>
        <time>2022-02-09T09:53:01.019Z</time>
      </trkpt>
      <trkpt lat="49.493427" lon="8.148103">
        <ele>320.357720</ele>
        <time>2022-02-09T09:53:08.043Z</time>
      </trkpt>
      <trkpt lat="49.493525" lon="8.148155">
        <ele>319.483178</ele>
        <time>2022-02-09T09:53:15.052Z</time>
      </trkpt>
      <trkpt lat="49.493608" lon="8.148213">
        <ele>318.714161</ele>
        <time>2022-02-09T09:53:22.030Z</time>
      </trkpt>
      <trkpt lat="49.493708" lon="8.148253">
        <ele>317.842464</ele>
        <time>2022-02-09T09:53:30.052Z</time>
      </trkpt>
      <trkpt lat="49.493802" lon="8.148310">
        <ele>316.990102</ele>
        <time>2022-02-09T09:53:37.030Z</time>
      </trkpt>
      <trkpt lat="49.493897" lon="8.148363">
        <ele>316.137599</ele>
        <time>2022-02-09T09:53:47.033Z</time>
      </trkpt>
      <trkpt lat="49.493987" lon="8.148413">
        <ele>315.330357</ele>
        <time>2022-02-09T09:53:53.035Z</time>
      </trkpt>
      <trkpt lat="49.494060" lon="8.148502">
        <ele>314.544743</ele>
        <time>2022-02-09T09:54:00.033Z</time>
      </trkpt>
      <trkpt lat="49.494140" lon="8.148593">
        <ele>313.705555</ele>
        <time>2022-02-09T09:54:08.027Z</time>
      </trkpt>
      <trkpt lat="49.494205" lon="8.148710">
        <ele>312.861862</ele>
        <time>2022-02-09T09:54:15.047Z</time>
      </trkpt>
      <trkpt lat="49.494272" lon="8.148820">
        <ele>312.035490</ele>
        <time>2022-02-09T09:54:23.049Z</time>
      </trkpt>
      <trkpt lat="49.494315" lon="8.148943">
        <ele>311.270026</ele>
        <time>2022-02-09T09:54:32.035Z</time>
      </trkpt>
      <trkpt lat="49.494378" lon="8.149067">
        <ele>310.407325</ele>
        <time>2022-02-09T09:54:39.028Z</time>
      </trkpt>
      <trkpt lat="49.494438" lon="8.149173">
        <ele>309.636829</ele>
        <time>2022-02-09T09:54:46.031Z</time>
      </trkpt>
      <trkpt lat="49.494485" lon="8.149295">
        <ele>308.859527</ele>
        <time>2022-02-09T09:54:53.051Z</time>
      </trkpt>
      <trkpt lat="49.494430" lon="8.149405">
        <ele>308.098817</ele>
        <time>2022-02-09T09:55:04.037Z</time>
      </trkpt>
      <trkpt lat="49.494338" lon="8.149462">
        <ele>307.305080</ele>
        <time>2022-02-09T09:55:16.048Z</time>
      </trkpt>
      <trkpt lat="49.494242" lon="8.149515">
        <ele>306.801066</ele>
        <time>2022-02-09T09:55:23.041Z</time>
      </trkpt>
      <trkpt lat="49.494152" lon="8.149567">
        <ele>306.325996</ele>
        <time>2022-02-09T09:55:30.041Z</time>
      </trkpt>
      <trkpt lat="49.494062" lon="8.149628">
        <ele>305.840022</ele>
        <time>2022-02-09T09:55:38.019Z</time>
      </trkpt>
      <trkpt lat="49.493970" lon="8.149707">
        <ele>305.319419</ele>
        <time>2022-02-09T09:55:44.031Z</time>
      </trkpt>
      <trkpt lat="49.493883" lon="8.149785">
        <ele>304.821875</ele>
        <time>2022-02-09T09:55:51.048Z</time>
      </trkpt>
      <trkpt lat="49.493802" lon="8.149867">
        <ele>304.342785</ele>
        <time>2022-02-09T09:55:58.031Z</time>
      </trkpt>
      <trkpt lat="49.493722" lon="8.149950">
        <ele>303.866031</ele>
        <time>2022-02-09T09:56:06.029Z</time>
      </trkpt>
      <trkpt lat="49.493640" lon="8.150032">
        <ele>303.382804</ele>
        <time>2022-02-09T09:56:13.051Z</time>
      </trkpt>
      <trkpt lat="49.493555" lon="8.150113">
        <ele>302.888775</ele>
        <time>2022-02-09T09:56:21.032Z</time>
      </trkpt>
      <trkpt lat="49.493477" lon="8.150190">
        <ele>302.430861</ele>
        <time>2022-02-09T09:56:26.034Z</time>
      </trkpt>
      <trkpt lat="49.493388" lon="8.150255">
        <ele>301.944041</ele>
        <time>2022-02-09T09:56:34.028Z</time>
      </trkpt>
      <trkpt lat="49.493318" lon="8.150363">
        <ele>301.454282</ele>
        <time>2022-02-09T09:56:40.031Z</time>
      </trkpt>
      <trkpt lat="49.493235" lon="8.150438">
        <ele>300.978662</ele>
        <time>2022-02-09T09:56:48.028Z</time>
      </trkpt>
      <trkpt lat="49.493173" lon="8.150543">
        <ele>300.523153</ele>
        <time>2022-02-09T09:57:07.034Z</time>
      </trkpt>
      <trkpt lat="49.493078" lon="8.150588">
        <ele>300.031942</ele>
        <time>2022-02-09T09:57:13.035Z</time>
      </trkpt>
      <trkpt lat="49.492975" lon="8.150642">
        <ele>299.494210</ele>
        <time>2022-02-09T09:57:19.027Z</time>
      </trkpt>
      <trkpt lat="49.492875" lon="8.150667">
        <ele>298.993535</ele>
        <time>2022-02-09T09:57:25.031Z</time>
      </trkpt>
      <trkpt lat="49.492785" lon="8.150715">
        <ele>298.522821</ele>
        <time>2022-02-09T09:57:32.030Z</time>
      </trkpt>
      <trkpt lat="49.492703" lon="8.150778">
        <ele>297.823190</ele>
        <time>2022-02-09T09:57:38.037Z</time>
      </trkpt>
      <trkpt lat="49.492620" lon="8.150862">
        <ele>297.034718</ele>
        <time>2022-02-09T09:57:45.027Z</time>
      </trkpt>
      <trkpt lat="49.492533" lon="8.150933">
        <ele>296.253075</ele>
        <time>2022-02-09T09:57:52.027Z</time>
      </trkpt>
      <trkpt lat="49.492448" lon="8.151025">
        <ele>295.428276</ele>
        <time>2022-02-09T09:57:58.028Z</time>
      </trkpt>
      <trkpt lat="49.492378" lon="8.151117">
        <ele>294.697668</ele>
        <time>2022-02-09T09:58:04.023Z</time>
      </trkpt>
      <trkpt lat="49.492287" lon="8.151182">
        <ele>293.901340</ele>
        <time>2022-02-09T09:58:12.037Z</time>
      </trkpt>
      <trkpt lat="49.492195" lon="8.151218">
        <ele>293.147815</ele>
        <time>2022-02-09T09:58:19.023Z</time>
      </trkpt>
      <trkpt lat="49.492102" lon="8.151237">
        <ele>292.403102</ele>
        <time>2022-02-09T09:58:26.023Z</time>
      </trkpt>
      <trkpt lat="49.492002" lon="8.151240">
        <ele>291.609143</ele>
        <time>2022-02-09T09:58:33.021Z</time>
      </trkpt>
      <trkpt lat="49.491905" lon="8.151232">
        <ele>290.838045</ele>
        <time>2022-02-09T09:58:41.031Z</time>
      </trkpt>
      <trkpt lat="49.491830" lon="8.151317">
        <ele>290.098763</ele>
        <time>2022-02-09T09:58:52.030Z</time>
      </trkpt>
      <trkpt lat="49.491812" lon="8.151473">
        <ele>289.281799</ele>
        <time>2022-02-09T09:59:02.017Z</time>
      </trkpt>
      <trkpt lat="49.491803" lon="8.151613">
        <ele>288.556399</ele>
        <time>2022-02-09T09:59:07.034Z</time>
      </trkpt>
      <trkpt lat="49.491792" lon="8.151752">
        <ele>287.834383</ele>
        <time>2022-02-09T09:59:12.039Z</time>
      </trkpt>
      <trkpt lat="49.491792" lon="8.151895">
        <ele>287.097042</ele>
        <time>2022-02-09T09:59:18.025Z</time>
      </trkpt>
      <trkpt lat="49.491832" lon="8.152043">
        <ele>286.270496</ele>
        <time>2022-02-09T09:59:23.023Z</time>
      </trkpt>
      <trkpt lat="49.491845" lon="8.152187">
        <ele>285.520862</ele>
        <time>2022-02-09T09:59:29.036Z</time>
      </trkpt>
      <trkpt lat="49.491847" lon="8.152345">
        <ele>284.706023</ele>
        <time>2022-02-09T09:59:35.042Z</time>
      </trkpt>
      <trkpt lat="49.491855" lon="8.152488">
        <ele>284.048131</ele>
        <time>2022-02-09T09:59:42.042Z</time>
      </trkpt>
      <trkpt lat="49.491858" lon="8.152638">
        <ele>283.547051</ele>
        <time>2022-02-09T09:59:49.033Z</time>
      </trkpt>
      <trkpt lat="49.491870" lon="8.152777">
        <ele>283.078856</ele>
        <time>2022-02-09T09:59:55.040Z</time>
      </trkpt>
      <trkpt lat="49.491887" lon="8.152915">
        <ele>282.609867</ele>
        <time>2022-02-09T10:00:00.037Z</time>
      </trkpt>
      <trkpt lat="49.491927" lon="8.153052">
        <ele>282.108345</ele>
        <time>2022-02-09T10:00:08.045Z</time>
      </trkpt>
      <trkpt lat="49.491962" lon="8.153190">
        <ele>281.613691</ele>
        <time>2022-02-09T10:00:15.018Z</time>
      </trkpt>
      <trkpt lat="49.491977" lon="8.153333">
        <ele>281.130037</ele>
        <time>2022-02-09T10:00:22.038Z</time>
      </trkpt>
      <trkpt lat="49.492015" lon="8.153478">
        <ele>280.607970</ele>
        <time>2022-02-09T10:00:29.031Z</time>
      </trkpt>
      <trkpt lat="49.492045" lon="8.153615">
        <ele>280.125241</ele>
        <time>2022-02-09T10:00:35.032Z</time>
      </trkpt>
      <trkpt lat="49.492045" lon="8.153770">
        <ele>279.607706</ele>
        <time>2022-02-09T10:00:41.035Z</time>
      </trkpt>
      <trkpt lat="49.492082" lon="8.153900">
        <ele>279.133803</ele>
        <time>2022-02-09T10:00:50.021Z</time>
      </trkpt>
      <trkpt lat="49.492152" lon="8.154003">
        <ele>278.636060</ele>
        <time>2022-02-09T10:00:57.029Z</time>
      </trkpt>
      <trkpt lat="49.492233" lon="8.154087">
        <ele>278.134037</ele>
        <time>2022-02-09T10:01:04.023Z</time>
      </trkpt>
      <trkpt lat="49.492198" lon="8.154240">
        <ele>277.592427</ele>
        <time>2022-02-09T10:01:13.030Z</time>
      </trkpt>
      <trkpt lat="49.492133" lon="8.154355">
        <ele>277.083431</ele>
        <time>2022-02-09T10:01:18.042Z</time>
      </trkpt>
      <trkpt lat="49.492063" lon="8.154453">
        <ele>276.597072</ele>
        <time>2022-02-09T10:01:26.062Z</time>
      </trkpt>
      <trkpt lat="49.492090" lon="8.154592">
        <ele>276.112652</ele>
        <time>2022-02-09T10:01:33.034Z</time>
      </trkpt>
      <trkpt lat="49.492152" lon="8.154698">
        <ele>275.636380</ele>
        <time>2022-02-09T10:01:39.036Z</time>
      </trkpt>
      <trkpt lat="49.492205" lon="8.154827">
        <ele>275.126729</ele>
        <time>2022-02-09T10:01:46.035Z</time>
      </trkpt>
      <trkpt lat="49.492277" lon="8.154932">
        <ele>274.469101</ele>
        <time>2022-02-09T10:01:53.018Z</time>
      </trkpt>
      <trkpt lat="49.492328" lon="8.155050">
        <ele>273.787961</ele>
        <time>2022-02-09T10:02:00.043Z</time>
      </trkpt>
      <trkpt lat="49.492360" lon="8.155195">
        <ele>273.052007</ele>
        <time>2022-02-09T10:02:10.041Z</time>
      </trkpt>
      <trkpt lat="49.492298" lon="8.155317">
        <ele>272.307585</ele>
        <time>2022-02-09T10:02:17.025Z</time>
      </trkpt>
      <trkpt lat="49.492287" lon="8.155463">
        <ele>271.601243</ele>
        <time>2022-02-09T10:02:28.039Z</time>
      </trkpt>
      <trkpt lat="49.492368" lon="8.155570">
        <ele>270.811586</ele>
        <time>2022-02-09T10:02:37.034Z</time>
      </trkpt>
      <trkpt lat="49.492440" lon="8.155680">
        <ele>270.061109</ele>
        <time>2022-02-09T10:02:44.035Z</time>
      </trkpt>
      <trkpt lat="49.492483" lon="8.155812">
        <ele>269.351447</ele>
        <time>2022-02-09T10:02:51.037Z</time>
      </trkpt>
      <trkpt lat="49.492450" lon="8.155955">
        <ele>268.622146</ele>
        <time>2022-02-09T10:02:59.044Z</time>
      </trkpt>
      <trkpt lat="49.492387" lon="8.156060">
        <ele>267.935210</ele>
        <time>2022-02-09T10:03:05.043Z</time>
      </trkpt>
      <trkpt lat="49.492445" lon="8.156190">
        <ele>267.177286</ele>
        <time>2022-02-09T10:03:12.008Z</time>
      </trkpt>
      <trkpt lat="49.492493" lon="8.156312">
        <ele>266.491820</ele>
        <time>2022-02-09T10:03:18.055Z</time>
      </trkpt>
      <trkpt lat="49.492542" lon="8.156445">
        <ele>265.757004</ele>
        <time>2022-02-09T10:03:26.022Z</time>
      </trkpt>
      <trkpt lat="49.492607" lon="8.156548">
        <ele>265.066870</ele>
        <time>2022-02-09T10:03:32.027Z</time>
      </trkpt>
      <trkpt lat="49.492672" lon="8.156650">
        <ele>264.380175</ele>
        <time>2022-02-09T10:03:38.025Z</time>
      </trkpt>
      <trkpt lat="49.492735" lon="8.156763">
        <ele>263.664524</ele>
        <time>2022-02-09T10:03:45.019Z</time>
      </trkpt>
      <trkpt lat="49.492763" lon="8.156908">
        <ele>262.937556</ele>
        <time>2022-02-09T10:03:52.049Z</time>
      </trkpt>
      <trkpt lat="49.492805" lon="8.157050">
        <ele>262.187729</ele>
        <time>2022-02-09T10:04:05.035Z</time>
      </trkpt>
      <trkpt lat="49.492858" lon="8.157185">
        <ele>261.618735</ele>
        <time>2022-02-09T10:04:11.018Z</time>
      </trkpt>
      <trkpt lat="49.492935" lon="8.157265">
        <ele>261.531945</ele>
        <time>2022-02-09T10:04:17.034Z</time>
      </trkpt>
      <trkpt lat="49.492995" lon="8.157372">
        <ele>261.446161</ele>
        <time>2022-02-09T10:04:25.028Z</time>
      </trkpt>
      <trkpt lat="49.493057" lon="8.157497">
        <ele>261.350715</ele>
        <time>2022-02-09T10:04:32.051Z</time>
      </trkpt>
      <trkpt lat="49.493093" lon="8.157632">
        <ele>261.262153</ele>
        <time>2022-02-09T10:04:39.031Z</time>
      </trkpt>
      <trkpt lat="49.493112" lon="8.157773">
        <ele>261.174764</ele>
        <time>2022-02-09T10:04:48.039Z</time>
      </trkpt>
      <trkpt lat="49.493145" lon="8.157915">
        <ele>261.083240</ele>
        <time>2022-02-09T10:04:54.038Z</time>
      </trkpt>
      <trkpt lat="49.493202" lon="8.158043">
        <ele>260.989060</ele>
        <time>2022-02-09T10:05:01.025Z</time>
      </trkpt>
      <trkpt lat="49.493297" lon="8.158102">
        <ele>260.893352</ele>
        <time>2022-02-09T10:05:07.032Z</time>
      </trkpt>
      <trkpt lat="49.493337" lon="8.158233">
        <ele>260.805508</ele>
        <time>2022-02-09T10:05:13.033Z</time>
      </trkpt>
      <trkpt lat="49.493378" lon="8.158370">
        <ele>260.713968</ele>
        <time>2022-02-09T10:05:20.032Z</time>
      </trkpt>
      <trkpt lat="49.493415" lon="8.158507">
        <ele>260.623928</ele>
        <time>2022-02-09T10:05:27.036Z</time>
      </trkpt>
      <trkpt lat="49.493468" lon="8.158623">
        <ele>260.537861</ele>
        <time>2022-02-09T10:05:33.035Z</time>
      </trkpt>
      <trkpt lat="49.493525" lon="8.158743">
        <ele>260.447644</ele>
        <time>2022-02-09T10:05:40.040Z</time>
      </trkpt>
      <trkpt lat="49.493597" lon="8.158845">
        <ele>260.356229</ele>
        <time>2022-02-09T10:05:47.036Z</time>
      </trkpt>
      <trkpt lat="49.493663" lon="8.158945">
        <ele>260.269712</ele>
        <time>2022-02-09T10:05:54.033Z</time>
      </trkpt>
      <trkpt lat="49.493753" lon="8.158992">
        <ele>260.180920</ele>
        <time>2022-02-09T10:06:00.037Z</time>
      </trkpt>
      <trkpt lat="49.493847" lon="8.159022">
        <ele>260.091229</ele>
        <time>2022-02-09T10:06:07.034Z</time>
      </trkpt>
      <trkpt lat="49.493940" lon="8.159100">
        <ele>259.992283</ele>
        <time>2022-02-09T10:06:14.026Z</time>
      </trkpt>
      <trkpt lat="49.494033" lon="8.159160">
        <ele>259.789344</ele>
        <time>2022-02-09T10:06:21.024Z</time>
      </trkpt>
      <trkpt lat="49.494117" lon="8.159230">
        <ele>259.556412</ele>
        <time>2022-02-09T10:06:28.026Z</time>
      </trkpt>
      <trkpt lat="49.494202" lon="8.159313">
        <ele>259.310947</ele>
        <time>2022-02-09T10:06:36.029Z</time>
      </trkpt>
      <trkpt lat="49.494297" lon="8.159365">
        <ele>259.065066</ele>
        <time>2022-02-09T10:06:44.031Z</time>
      </trkpt>
      <trkpt lat="49.494387" lon="8.159380">
        <ele>258.844303</ele>
        <time>2022-02-09T10:06:50.030Z</time>
      </trkpt>
      <trkpt lat="49.494487" lon="8.159385">
        <ele>258.600306</ele>
        <time>2022-02-09T10:06:56.035Z</time>
      </trkpt>
      <trkpt lat="49.494582" lon="8.159322">
        <ele>258.348054</ele>
        <time>2022-02-09T10:07:23.014Z</time>
      </trkpt>
      <trkpt lat="49.494678" lon="8.159270">
        <ele>258.099874</ele>
        <time>2022-02-09T10:07:29.029Z</time>
      </trkpt>
      <trkpt lat="49.494773" lon="8.159198">
        <ele>257.841650</ele>
        <time>2022-02-09T10:07:36.033Z</time>
      </trkpt>
      <trkpt lat="49.494867" lon="8.159137">
        <ele>257.592884</ele>
        <time>2022-02-09T10:07:42.021Z</time>
      </trkpt>
      <trkpt lat="49.494942" lon="8.159032">
        <ele>257.345672</ele>
        <time>2022-02-09T10:07:49.030Z</time>
      </trkpt>
      <trkpt lat="49.495040" lon="8.158975">
        <ele>257.090196</ele>
        <time>2022-02-09T10:07:56.034Z</time>
      </trkpt>
      <trkpt lat="49.495133" lon="8.158925">
        <ele>256.849968</ele>
        <time>2022-02-09T10:08:03.033Z</time>
      </trkpt>
      <trkpt lat="49.495222" lon="8.158895">
        <ele>256.627785</ele>
        <time>2022-02-09T10:08:09.027Z</time>
      </trkpt>
      <trkpt lat="49.495325" lon="8.158872">
        <ele>256.373973</ele>
        <time>2022-02-09T10:08:16.041Z</time>
      </trkpt>
      <trkpt lat="49.495425" lon="8.158868">
        <ele>256.130022</ele>
        <time>2022-02-09T10:08:23.029Z</time>
      </trkpt>
      <trkpt lat="49.495515" lon="8.158850">
        <ele>255.908697</ele>
        <time>2022-02-09T10:08:29.030Z</time>
      </trkpt>
      <trkpt lat="49.495607" lon="8.158872">
        <ele>255.681648</ele>
        <time>2022-02-09T10:08:35.023Z</time>
      </trkpt>
      <trkpt lat="49.495703" lon="8.158908">
        <ele>255.579284</ele>
        <time>2022-02-09T10:08:42.036Z</time>
      </trkpt>
      <trkpt lat="49.495803" lon="8.158947">
        <ele>255.579284</ele>
        <time>2022-02-09T10:08:48.037Z</time>
      </trkpt>
      <trkpt lat="49.495885" lon="8.159008">
        <ele>255.579284</ele>
        <time>2022-02-09T10:08:54.025Z</time>
      </trkpt>
      <trkpt lat="49.495973" lon="8.159038">
        <ele>255.579284</ele>
        <time>2022-02-09T10:09:01.041Z</time>
      </trkpt>
      <trkpt lat="49.496068" lon="8.159078">
        <ele>255.579284</ele>
        <time>2022-02-09T10:09:07.028Z</time>
      </trkpt>
      <trkpt lat="49.496162" lon="8.159132">
        <ele>255.579284</ele>
        <time>2022-02-09T10:09:14.028Z</time>
      </trkpt>
      <trkpt lat="49.496257" lon="8.159128">
        <ele>255.579284</ele>
        <time>2022-02-09T10:09:22.033Z</time>
      </trkpt>
      <trkpt lat="49.496293" lon="8.158985">
        <ele>255.579284</ele>
        <time>2022-02-09T10:09:31.032Z</time>
      </trkpt>
      <trkpt lat="49.496320" lon="8.158850">
        <ele>255.579284</ele>
        <time>2022-02-09T10:09:38.041Z</time>
      </trkpt>
      <trkpt lat="49.496342" lon="8.158708">
        <ele>255.579284</ele>
        <time>2022-02-09T10:09:44.034Z</time>
      </trkpt>
      <trkpt lat="49.496373" lon="8.158565">
        <ele>255.579284</ele>
        <time>2022-02-09T10:09:51.014Z</time>
      </trkpt>
      <trkpt lat="49.496392" lon="8.158428">
        <ele>255.579284</ele>
        <time>2022-02-09T10:09:57.033Z</time>
      </trkpt>
      <trkpt lat="49.496415" lon="8.158282">
        <ele>255.579284</ele>
        <time>2022-02-09T10:10:04.034Z</time>
      </trkpt>
      <trkpt lat="49.496435" lon="8.158138">
        <ele>255.579284</ele>
        <time>2022-02-09T10:10:10.027Z</time>
      </trkpt>
      <trkpt lat="49.496433" lon="8.157993">
        <ele>255.579284</ele>
        <time>2022-02-09T10:10:17.029Z</time>
      </trkpt>
      <trkpt lat="49.496428" lon="8.157852">
        <ele>255.579284</ele>
        <time>2022-02-09T10:10:24.034Z</time>
      </trkpt>
      <trkpt lat="49.496437" lon="8.157702">
        <ele>255.579284</ele>
        <time>2022-02-09T10:10:32.025Z</time>
      </trkpt>
      <trkpt lat="49.496430" lon="8.157560">
        <ele>255.579284</ele>
        <time>2022-02-09T10:10:39.022Z</time>
      </trkpt>
      <trkpt lat="49.496333" lon="8.157425">
        <ele>255.579284</ele>
        <time>2022-02-09T10:11:08.026Z</time>
      </trkpt>
      <trkpt lat="49.496325" lon="8.157270">
        <ele>255.579284</ele>
        <time>2022-02-09T10:11:17.014Z</time>
      </trkpt>
      <trkpt lat="49.496312" lon="8.157188">
        <ele>255.579284</ele>
        <time>2022-02-09T10:11:24.930Z</time>
      </trkpt>
    </trkseg>
  </trk>
</gpx>